<?xml version="1.0" encoding="UTF-8" standalone="no" ?>
<gpx xmlns="http://www.topografix.com/GPX/1/1" xmlns:xsi="http://www.w3.org/2001/XMLSchema-instance" xsi:schemaLocation="http://www.topografix.com/GPX/1/1 http://www.topografix.com/GPX/1/1/gpx.xsd" version="1.1" creator="VisuGPX - https://www.visugpx.com">
  <metadata>
    <name>13 - La source de l\'Infernet</name>
    <desc><![CDATA[Le petit groupe se retrouve et démarre avant la chaleur vers le plateau pour entamer la partie \"sèche\" de la randonnée.
Après 2,5 km avec vue sur Vitrolles, l\'étang de Berre, St Victoret, Les Pennes-Mirabeau, ... nous descendons enfin vers la verdure par une rivière asséchée.
Bientôt nous sommes au coeur d\'un (petit) Colorado, fait de pierres et terres rouges. Nous continuons et le bruit nous alerte sur la présence de la source toute proche.
On trouve un moyen pour descendre de nos rochers et pouvons enfin voir et photographier la cascade et la source avant qu\'un groupe d\'une trentaine de jeunes n\'arrivent sur place.
On repart donc le long de l\'Infernet devenu Cadière mais au moment de bifurquer sur la droite, nous sommes devant des grillages. Nous remontons donc vers la cascade, sur nos rocher d\'arrivée et vers une piste traversée plus tôt.
Une fois cette piste atteinte, nous re-traversons le plateau et regagnons nos voitures.]]></desc>
  </metadata>
  <wpt lat="43.4419" lon="5.29599">
    <ele>136.7</ele>
    <name><![CDATA[Départ]]></name>
  </wpt>
  <trk>
    <name><![CDATA[Source Infernet]]></name>
    <trkseg>
      <trkpt lat="43.4419" lon="5.29599">
        <ele>141.93176269531</ele>
        <time>2014-05-26T06:53:00Z</time>
      </trkpt>
      <trkpt lat="43.44172" lon="5.29608">
        <ele>142.41247558594</ele>
        <time>2014-05-26T06:53:22Z</time>
      </trkpt>
      <trkpt lat="43.44172" lon="5.29608">
        <ele>142.89306640625</ele>
        <time>2014-05-26T06:53:36Z</time>
      </trkpt>
      <trkpt lat="43.44151" lon="5.2961">
        <ele>143.37365722656</ele>
        <time>2014-05-26T06:53:49Z</time>
      </trkpt>
      <trkpt lat="43.44151" lon="5.2961">
        <ele>143.85437011719</ele>
        <time>2014-05-26T06:53:55Z</time>
      </trkpt>
      <trkpt lat="43.44151" lon="5.2961">
        <ele>144.33520507812</ele>
        <time>2014-05-26T06:54:15Z</time>
      </trkpt>
      <trkpt lat="43.44151" lon="5.2961">
        <ele>144.33520507812</ele>
        <time>2014-05-26T06:54:26Z</time>
      </trkpt>
      <trkpt lat="43.44151" lon="5.2961">
        <ele>145.29638671875</ele>
        <time>2014-05-26T06:54:34Z</time>
      </trkpt>
      <trkpt lat="43.44123" lon="5.2964">
        <ele>146.73840332031</ele>
        <time>2014-05-26T06:54:51Z</time>
      </trkpt>
      <trkpt lat="43.44123" lon="5.2964">
        <ele>146.73840332031</ele>
        <time>2014-05-26T06:55:24Z</time>
      </trkpt>
      <trkpt lat="43.44123" lon="5.2964">
        <ele>147.21899414062</ele>
        <time>2014-05-26T06:55:41Z</time>
      </trkpt>
      <trkpt lat="43.44117" lon="5.29654">
        <ele>145.77709960938</ele>
        <time>2014-05-26T06:55:50Z</time>
      </trkpt>
      <trkpt lat="43.44122" lon="5.29642">
        <ele>144.81579589844</ele>
        <time>2014-05-26T06:56:04Z</time>
      </trkpt>
      <trkpt lat="43.44122" lon="5.29642">
        <ele>144.81579589844</ele>
        <time>2014-05-26T06:57:24Z</time>
      </trkpt>
      <trkpt lat="43.44122" lon="5.29642">
        <ele>144.33520507812</ele>
        <time>2014-05-26T06:58:52Z</time>
      </trkpt>
      <trkpt lat="43.44122" lon="5.29642">
        <ele>144.33520507812</ele>
        <time>2014-05-26T07:03:52Z</time>
      </trkpt>
      <trkpt lat="43.44122" lon="5.29642">
        <ele>144.81579589844</ele>
        <time>2014-05-26T07:09:36Z</time>
      </trkpt>
      <trkpt lat="43.44122" lon="5.29642">
        <ele>144.33520507812</ele>
        <time>2014-05-26T07:10:13Z</time>
      </trkpt>
      <trkpt lat="43.44122" lon="5.29642">
        <ele>144.33520507812</ele>
        <time>2014-05-26T07:12:15Z</time>
      </trkpt>
      <trkpt lat="43.44122" lon="5.29642">
        <ele>143.37365722656</ele>
        <time>2014-05-26T07:15:15Z</time>
      </trkpt>
      <trkpt lat="43.44122" lon="5.29642">
        <ele>143.85437011719</ele>
        <time>2014-05-26T07:18:17Z</time>
      </trkpt>
      <trkpt lat="43.44122" lon="5.29642">
        <ele>143.37365722656</ele>
        <time>2014-05-26T07:18:38Z</time>
      </trkpt>
      <trkpt lat="43.44122" lon="5.29642">
        <ele>143.37365722656</ele>
        <time>2014-05-26T07:18:57Z</time>
      </trkpt>
      <trkpt lat="43.44122" lon="5.29642">
        <ele>143.37365722656</ele>
        <time>2014-05-26T07:19:18Z</time>
      </trkpt>
      <trkpt lat="43.44122" lon="5.29642">
        <ele>144.81579589844</ele>
        <time>2014-05-26T07:19:42Z</time>
      </trkpt>
      <trkpt lat="43.44122" lon="5.29642">
        <ele>144.81579589844</ele>
        <time>2014-05-26T07:20:05Z</time>
      </trkpt>
      <trkpt lat="43.44122" lon="5.29642">
        <ele>144.81579589844</ele>
        <time>2014-05-26T07:20:25Z</time>
      </trkpt>
      <trkpt lat="43.44122" lon="5.29642">
        <ele>145.29638671875</ele>
        <time>2014-05-26T07:20:45Z</time>
      </trkpt>
      <trkpt lat="43.44122" lon="5.29642">
        <ele>146.2578125</ele>
        <time>2014-05-26T07:21:10Z</time>
      </trkpt>
      <trkpt lat="43.4403" lon="5.29718">
        <ele>146.73840332031</ele>
        <time>2014-05-26T07:21:33Z</time>
      </trkpt>
      <trkpt lat="43.44021" lon="5.29732">
        <ele>146.73840332031</ele>
        <time>2014-05-26T07:21:55Z</time>
      </trkpt>
      <trkpt lat="43.44021" lon="5.29731">
        <ele>147.21899414062</ele>
        <time>2014-05-26T07:22:17Z</time>
      </trkpt>
      <trkpt lat="43.44019" lon="5.29728">
        <ele>146.73840332031</ele>
        <time>2014-05-26T07:22:37Z</time>
      </trkpt>
      <trkpt lat="43.44012" lon="5.29742">
        <ele>146.73840332031</ele>
        <time>2014-05-26T07:23:33Z</time>
      </trkpt>
      <trkpt lat="43.44" lon="5.29756">
        <ele>146.73840332031</ele>
        <time>2014-05-26T07:23:48Z</time>
      </trkpt>
      <trkpt lat="43.43988" lon="5.29767">
        <ele>147.21899414062</ele>
        <time>2014-05-26T07:24:03Z</time>
      </trkpt>
      <trkpt lat="43.43977" lon="5.29782">
        <ele>147.21899414062</ele>
        <time>2014-05-26T07:24:17Z</time>
      </trkpt>
      <trkpt lat="43.43962" lon="5.29802">
        <ele>147.21899414062</ele>
        <time>2014-05-26T07:24:37Z</time>
      </trkpt>
      <trkpt lat="43.4396" lon="5.29805">
        <ele>147.21899414062</ele>
        <time>2014-05-26T07:24:40Z</time>
      </trkpt>
      <trkpt lat="43.43959" lon="5.29807">
        <ele>147.21899414062</ele>
        <time>2014-05-26T07:24:42Z</time>
      </trkpt>
      <trkpt lat="43.43936" lon="5.29827">
        <ele>146.73840332031</ele>
        <time>2014-05-26T07:25:05Z</time>
      </trkpt>
      <trkpt lat="43.43922" lon="5.2984">
        <ele>146.2578125</ele>
        <time>2014-05-26T07:25:22Z</time>
      </trkpt>
      <trkpt lat="43.4392" lon="5.29841">
        <ele>145.77709960938</ele>
        <time>2014-05-26T07:25:24Z</time>
      </trkpt>
      <trkpt lat="43.43919" lon="5.29842">
        <ele>145.77709960938</ele>
        <time>2014-05-26T07:25:26Z</time>
      </trkpt>
      <trkpt lat="43.43913" lon="5.2985">
        <ele>145.29638671875</ele>
        <time>2014-05-26T07:25:33Z</time>
      </trkpt>
      <trkpt lat="43.439" lon="5.29869">
        <ele>144.81579589844</ele>
        <time>2014-05-26T07:25:48Z</time>
      </trkpt>
      <trkpt lat="43.43887" lon="5.29891">
        <ele>145.29638671875</ele>
        <time>2014-05-26T07:26:07Z</time>
      </trkpt>
      <trkpt lat="43.43885" lon="5.29895">
        <ele>145.29638671875</ele>
        <time>2014-05-26T07:26:11Z</time>
      </trkpt>
      <trkpt lat="43.43877" lon="5.29902">
        <ele>144.81579589844</ele>
        <time>2014-05-26T07:26:20Z</time>
      </trkpt>
      <trkpt lat="43.43863" lon="5.29916">
        <ele>143.85437011719</ele>
        <time>2014-05-26T07:26:37Z</time>
      </trkpt>
      <trkpt lat="43.43855" lon="5.29925">
        <ele>144.33520507812</ele>
        <time>2014-05-26T07:26:46Z</time>
      </trkpt>
      <trkpt lat="43.43837" lon="5.29945">
        <ele>144.33520507812</ele>
        <time>2014-05-26T07:27:06Z</time>
      </trkpt>
      <trkpt lat="43.4382" lon="5.29973">
        <ele>143.37365722656</ele>
        <time>2014-05-26T07:27:26Z</time>
      </trkpt>
      <trkpt lat="43.43817" lon="5.29974">
        <ele>143.85437011719</ele>
        <time>2014-05-26T07:27:30Z</time>
      </trkpt>
      <trkpt lat="43.43819" lon="5.2997">
        <ele>143.85437011719</ele>
        <time>2014-05-26T07:27:39Z</time>
      </trkpt>
      <trkpt lat="43.43825" lon="5.29962">
        <ele>143.85437011719</ele>
        <time>2014-05-26T07:27:46Z</time>
      </trkpt>
      <trkpt lat="43.43835" lon="5.29957">
        <ele>144.33520507812</ele>
        <time>2014-05-26T07:27:58Z</time>
      </trkpt>
      <trkpt lat="43.4384" lon="5.29955">
        <ele>144.81579589844</ele>
        <time>2014-05-26T07:28:08Z</time>
      </trkpt>
      <trkpt lat="43.43853" lon="5.29945">
        <ele>145.29638671875</ele>
        <time>2014-05-26T07:28:23Z</time>
      </trkpt>
      <trkpt lat="43.43869" lon="5.29933">
        <ele>145.77709960938</ele>
        <time>2014-05-26T07:28:40Z</time>
      </trkpt>
      <trkpt lat="43.43876" lon="5.29935">
        <ele>145.77709960938</ele>
        <time>2014-05-26T07:28:47Z</time>
      </trkpt>
      <trkpt lat="43.4389" lon="5.29943">
        <ele>146.73840332031</ele>
        <time>2014-05-26T07:28:55Z</time>
      </trkpt>
      <trkpt lat="43.43897" lon="5.29955">
        <ele>147.69970703125</ele>
        <time>2014-05-26T07:29:07Z</time>
      </trkpt>
      <trkpt lat="43.43902" lon="5.29962">
        <ele>148.18041992188</ele>
        <time>2014-05-26T07:29:19Z</time>
      </trkpt>
      <trkpt lat="43.43911" lon="5.2997">
        <ele>147.69970703125</ele>
        <time>2014-05-26T07:29:46Z</time>
      </trkpt>
      <trkpt lat="43.43916" lon="5.29971">
        <ele>147.21899414062</ele>
        <time>2014-05-26T07:29:52Z</time>
      </trkpt>
      <trkpt lat="43.43933" lon="5.29978">
        <ele>147.21899414062</ele>
        <time>2014-05-26T07:30:07Z</time>
      </trkpt>
      <trkpt lat="43.43935" lon="5.29982">
        <ele>148.18041992188</ele>
        <time>2014-05-26T07:30:11Z</time>
      </trkpt>
      <trkpt lat="43.43946" lon="5.30002">
        <ele>148.66101074219</ele>
        <time>2014-05-26T07:30:26Z</time>
      </trkpt>
      <trkpt lat="43.4395" lon="5.30017">
        <ele>150.10302734375</ele>
        <time>2014-05-26T07:30:38Z</time>
      </trkpt>
      <trkpt lat="43.43951" lon="5.30033">
        <ele>151.544921875</ele>
        <time>2014-05-26T07:30:52Z</time>
      </trkpt>
      <trkpt lat="43.43954" lon="5.30045">
        <ele>153.46765136719</ele>
        <time>2014-05-26T07:31:04Z</time>
      </trkpt>
      <trkpt lat="43.43957" lon="5.30069">
        <ele>156.3515625</ele>
        <time>2014-05-26T07:31:25Z</time>
      </trkpt>
      <trkpt lat="43.43961" lon="5.30091">
        <ele>158.75476074219</ele>
        <time>2014-05-26T07:31:45Z</time>
      </trkpt>
      <trkpt lat="43.43962" lon="5.30116">
        <ele>161.158203125</ele>
        <time>2014-05-26T07:32:08Z</time>
      </trkpt>
      <trkpt lat="43.43965" lon="5.30131">
        <ele>163.08081054688</ele>
        <time>2014-05-26T07:32:25Z</time>
      </trkpt>
      <trkpt lat="43.43964" lon="5.30142">
        <ele>164.04211425781</ele>
        <time>2014-05-26T07:32:41Z</time>
      </trkpt>
      <trkpt lat="43.43963" lon="5.30152">
        <ele>165.00341796875</ele>
        <time>2014-05-26T07:33:22Z</time>
      </trkpt>
      <trkpt lat="43.43967" lon="5.30167">
        <ele>165.96472167969</ele>
        <time>2014-05-26T07:33:34Z</time>
      </trkpt>
      <trkpt lat="43.43967" lon="5.3017">
        <ele>165.96472167969</ele>
        <time>2014-05-26T07:33:36Z</time>
      </trkpt>
      <trkpt lat="43.4396" lon="5.30185">
        <ele>166.4453125</ele>
        <time>2014-05-26T07:33:50Z</time>
      </trkpt>
      <trkpt lat="43.4395" lon="5.30194">
        <ele>166.4453125</ele>
        <time>2014-05-26T07:34:04Z</time>
      </trkpt>
      <trkpt lat="43.43949" lon="5.30206">
        <ele>165.48413085938</ele>
        <time>2014-05-26T07:34:20Z</time>
      </trkpt>
      <trkpt lat="43.43948" lon="5.30212">
        <ele>165.00341796875</ele>
        <time>2014-05-26T07:34:24Z</time>
      </trkpt>
      <trkpt lat="43.43946" lon="5.30219">
        <ele>165.00341796875</ele>
        <time>2014-05-26T07:34:28Z</time>
      </trkpt>
      <trkpt lat="43.43933" lon="5.30229">
        <ele>164.52270507812</ele>
        <time>2014-05-26T07:34:42Z</time>
      </trkpt>
      <trkpt lat="43.43928" lon="5.3023">
        <ele>165.00341796875</ele>
        <time>2014-05-26T07:34:47Z</time>
      </trkpt>
      <trkpt lat="43.43915" lon="5.30232">
        <ele>165.48413085938</ele>
        <time>2014-05-26T07:34:58Z</time>
      </trkpt>
      <trkpt lat="43.43904" lon="5.30235">
        <ele>165.48413085938</ele>
        <time>2014-05-26T07:35:10Z</time>
      </trkpt>
      <trkpt lat="43.43903" lon="5.30235">
        <ele>165.48413085938</ele>
        <time>2014-05-26T07:35:11Z</time>
      </trkpt>
      <trkpt lat="43.43904" lon="5.3025">
        <ele>165.00341796875</ele>
        <time>2014-05-26T07:35:22Z</time>
      </trkpt>
      <trkpt lat="43.43905" lon="5.30257">
        <ele>164.52270507812</ele>
        <time>2014-05-26T07:35:27Z</time>
      </trkpt>
      <trkpt lat="43.43902" lon="5.30263">
        <ele>164.52270507812</ele>
        <time>2014-05-26T07:35:41Z</time>
      </trkpt>
      <trkpt lat="43.439" lon="5.30273">
        <ele>163.5615234375</ele>
        <time>2014-05-26T07:36:05Z</time>
      </trkpt>
      <trkpt lat="43.43899" lon="5.30274">
        <ele>164.04211425781</ele>
        <time>2014-05-26T07:36:24Z</time>
      </trkpt>
      <trkpt lat="43.43888" lon="5.30278">
        <ele>164.52270507812</ele>
        <time>2014-05-26T07:36:40Z</time>
      </trkpt>
      <trkpt lat="43.43884" lon="5.30294">
        <ele>163.5615234375</ele>
        <time>2014-05-26T07:36:56Z</time>
      </trkpt>
      <trkpt lat="43.4388" lon="5.30301">
        <ele>163.5615234375</ele>
        <time>2014-05-26T07:37:08Z</time>
      </trkpt>
      <trkpt lat="43.43877" lon="5.30312">
        <ele>165.00341796875</ele>
        <time>2014-05-26T07:37:36Z</time>
      </trkpt>
      <trkpt lat="43.43876" lon="5.30319">
        <ele>165.96472167969</ele>
        <time>2014-05-26T07:37:54Z</time>
      </trkpt>
      <trkpt lat="43.43879" lon="5.30327">
        <ele>166.92602539062</ele>
        <time>2014-05-26T07:38:28Z</time>
      </trkpt>
      <trkpt lat="43.43877" lon="5.30342">
        <ele>169.32946777344</ele>
        <time>2014-05-26T07:38:45Z</time>
      </trkpt>
      <trkpt lat="43.43873" lon="5.30351">
        <ele>169.81005859375</ele>
        <time>2014-05-26T07:39:07Z</time>
      </trkpt>
      <trkpt lat="43.43867" lon="5.30352">
        <ele>170.29064941406</ele>
        <time>2014-05-26T07:39:20Z</time>
      </trkpt>
      <trkpt lat="43.43859" lon="5.30367">
        <ele>169.81005859375</ele>
        <time>2014-05-26T07:39:33Z</time>
      </trkpt>
      <trkpt lat="43.43856" lon="5.3037">
        <ele>169.81005859375</ele>
        <time>2014-05-26T07:39:36Z</time>
      </trkpt>
      <trkpt lat="43.43855" lon="5.30372">
        <ele>170.29064941406</ele>
        <time>2014-05-26T07:39:38Z</time>
      </trkpt>
      <trkpt lat="43.4384" lon="5.30382">
        <ele>169.81005859375</ele>
        <time>2014-05-26T07:39:56Z</time>
      </trkpt>
      <trkpt lat="43.43822" lon="5.30387">
        <ele>168.84875488281</ele>
        <time>2014-05-26T07:40:18Z</time>
      </trkpt>
      <trkpt lat="43.43808" lon="5.30392">
        <ele>169.32946777344</ele>
        <time>2014-05-26T07:40:33Z</time>
      </trkpt>
      <trkpt lat="43.43791" lon="5.30405">
        <ele>168.36804199219</ele>
        <time>2014-05-26T07:40:52Z</time>
      </trkpt>
      <trkpt lat="43.43787" lon="5.30408">
        <ele>167.40673828125</ele>
        <time>2014-05-26T07:40:57Z</time>
      </trkpt>
      <trkpt lat="43.43777" lon="5.30418">
        <ele>168.36804199219</ele>
        <time>2014-05-26T07:41:10Z</time>
      </trkpt>
      <trkpt lat="43.43761" lon="5.30434">
        <ele>167.88732910156</ele>
        <time>2014-05-26T07:41:32Z</time>
      </trkpt>
      <trkpt lat="43.43755" lon="5.30447">
        <ele>167.40673828125</ele>
        <time>2014-05-26T07:41:47Z</time>
      </trkpt>
      <trkpt lat="43.43752" lon="5.30451">
        <ele>167.40673828125</ele>
        <time>2014-05-26T07:41:52Z</time>
      </trkpt>
      <trkpt lat="43.43735" lon="5.30463">
        <ele>166.92602539062</ele>
        <time>2014-05-26T07:42:11Z</time>
      </trkpt>
      <trkpt lat="43.43734" lon="5.30463">
        <ele>166.92602539062</ele>
        <time>2014-05-26T07:42:12Z</time>
      </trkpt>
      <trkpt lat="43.4373" lon="5.30463">
        <ele>166.92602539062</ele>
        <time>2014-05-26T07:42:16Z</time>
      </trkpt>
      <trkpt lat="43.43726" lon="5.30465">
        <ele>166.92602539062</ele>
        <time>2014-05-26T07:42:19Z</time>
      </trkpt>
      <trkpt lat="43.43723" lon="5.30468">
        <ele>167.40673828125</ele>
        <time>2014-05-26T07:42:23Z</time>
      </trkpt>
      <trkpt lat="43.43721" lon="5.30474">
        <ele>166.92602539062</ele>
        <time>2014-05-26T07:42:28Z</time>
      </trkpt>
      <trkpt lat="43.43706" lon="5.30485">
        <ele>166.92602539062</ele>
        <time>2014-05-26T07:42:43Z</time>
      </trkpt>
      <trkpt lat="43.43705" lon="5.30486">
        <ele>166.92602539062</ele>
        <time>2014-05-26T07:42:45Z</time>
      </trkpt>
      <trkpt lat="43.43692" lon="5.30497">
        <ele>165.96472167969</ele>
        <time>2014-05-26T07:43:02Z</time>
      </trkpt>
      <trkpt lat="43.43691" lon="5.30498">
        <ele>165.96472167969</ele>
        <time>2014-05-26T07:43:29Z</time>
      </trkpt>
      <trkpt lat="43.43682" lon="5.30508">
        <ele>165.96472167969</ele>
        <time>2014-05-26T07:44:00Z</time>
      </trkpt>
      <trkpt lat="43.43679" lon="5.30511">
        <ele>165.96472167969</ele>
        <time>2014-05-26T07:44:04Z</time>
      </trkpt>
      <trkpt lat="43.43671" lon="5.30519">
        <ele>165.96472167969</ele>
        <time>2014-05-26T07:44:16Z</time>
      </trkpt>
      <trkpt lat="43.43668" lon="5.30521">
        <ele>165.48413085938</ele>
        <time>2014-05-26T07:44:19Z</time>
      </trkpt>
      <trkpt lat="43.4366" lon="5.30523">
        <ele>165.48413085938</ele>
        <time>2014-05-26T07:44:25Z</time>
      </trkpt>
      <trkpt lat="43.43646" lon="5.30518">
        <ele>165.48413085938</ele>
        <time>2014-05-26T07:44:38Z</time>
      </trkpt>
      <trkpt lat="43.43638" lon="5.30521">
        <ele>165.48413085938</ele>
        <time>2014-05-26T07:44:53Z</time>
      </trkpt>
      <trkpt lat="43.43638" lon="5.30523">
        <ele>165.48413085938</ele>
        <time>2014-05-26T07:44:55Z</time>
      </trkpt>
      <trkpt lat="43.43629" lon="5.30536">
        <ele>165.00341796875</ele>
        <time>2014-05-26T07:45:12Z</time>
      </trkpt>
      <trkpt lat="43.43615" lon="5.3054">
        <ele>165.00341796875</ele>
        <time>2014-05-26T07:45:27Z</time>
      </trkpt>
      <trkpt lat="43.43601" lon="5.30538">
        <ele>164.52270507812</ele>
        <time>2014-05-26T07:45:41Z</time>
      </trkpt>
      <trkpt lat="43.43591" lon="5.30539">
        <ele>163.5615234375</ele>
        <time>2014-05-26T07:45:53Z</time>
      </trkpt>
      <trkpt lat="43.43576" lon="5.30544">
        <ele>163.08081054688</ele>
        <time>2014-05-26T07:46:08Z</time>
      </trkpt>
      <trkpt lat="43.43562" lon="5.30548">
        <ele>163.08081054688</ele>
        <time>2014-05-26T07:46:23Z</time>
      </trkpt>
      <trkpt lat="43.43557" lon="5.30552">
        <ele>163.5615234375</ele>
        <time>2014-05-26T07:46:47Z</time>
      </trkpt>
      <trkpt lat="43.43554" lon="5.30559">
        <ele>163.5615234375</ele>
        <time>2014-05-26T07:47:08Z</time>
      </trkpt>
      <trkpt lat="43.43542" lon="5.30571">
        <ele>163.08081054688</ele>
        <time>2014-05-26T07:47:29Z</time>
      </trkpt>
      <trkpt lat="43.43541" lon="5.30571">
        <ele>163.08081054688</ele>
        <time>2014-05-26T07:47:31Z</time>
      </trkpt>
      <trkpt lat="43.43534" lon="5.30574">
        <ele>163.08081054688</ele>
        <time>2014-05-26T07:47:38Z</time>
      </trkpt>
      <trkpt lat="43.43527" lon="5.30575">
        <ele>163.08081054688</ele>
        <time>2014-05-26T07:47:56Z</time>
      </trkpt>
      <trkpt lat="43.43523" lon="5.30577">
        <ele>163.08081054688</ele>
        <time>2014-05-26T07:48:20Z</time>
      </trkpt>
      <trkpt lat="43.43515" lon="5.30584">
        <ele>163.08081054688</ele>
        <time>2014-05-26T07:48:30Z</time>
      </trkpt>
      <trkpt lat="43.43512" lon="5.30607">
        <ele>162.60009765625</ele>
        <time>2014-05-26T07:48:46Z</time>
      </trkpt>
      <trkpt lat="43.43507" lon="5.30609">
        <ele>163.08081054688</ele>
        <time>2014-05-26T07:49:01Z</time>
      </trkpt>
      <trkpt lat="43.43506" lon="5.3061">
        <ele>162.60009765625</ele>
        <time>2014-05-26T07:50:04Z</time>
      </trkpt>
      <trkpt lat="43.43504" lon="5.3061">
        <ele>161.158203125</ele>
        <time>2014-05-26T07:52:43Z</time>
      </trkpt>
      <trkpt lat="43.43497" lon="5.30621">
        <ele>162.11950683594</ele>
        <time>2014-05-26T07:52:56Z</time>
      </trkpt>
      <trkpt lat="43.4349" lon="5.30636">
        <ele>161.158203125</ele>
        <time>2014-05-26T07:53:10Z</time>
      </trkpt>
      <trkpt lat="43.43478" lon="5.30649">
        <ele>161.63891601562</ele>
        <time>2014-05-26T07:53:25Z</time>
      </trkpt>
      <trkpt lat="43.43466" lon="5.30656">
        <ele>161.63891601562</ele>
        <time>2014-05-26T07:53:38Z</time>
      </trkpt>
      <trkpt lat="43.43451" lon="5.30661">
        <ele>161.158203125</ele>
        <time>2014-05-26T07:53:53Z</time>
      </trkpt>
      <trkpt lat="43.43446" lon="5.30665">
        <ele>161.158203125</ele>
        <time>2014-05-26T07:53:59Z</time>
      </trkpt>
      <trkpt lat="43.43433" lon="5.30685">
        <ele>160.19689941406</ele>
        <time>2014-05-26T07:54:20Z</time>
      </trkpt>
      <trkpt lat="43.43432" lon="5.30689">
        <ele>160.19689941406</ele>
        <time>2014-05-26T07:54:24Z</time>
      </trkpt>
      <trkpt lat="43.43428" lon="5.30701">
        <ele>159.71618652344</ele>
        <time>2014-05-26T07:54:37Z</time>
      </trkpt>
      <trkpt lat="43.43417" lon="5.30718">
        <ele>159.23547363281</ele>
        <time>2014-05-26T07:54:57Z</time>
      </trkpt>
      <trkpt lat="43.43404" lon="5.30737">
        <ele>159.23547363281</ele>
        <time>2014-05-26T07:55:21Z</time>
      </trkpt>
      <trkpt lat="43.43396" lon="5.30745">
        <ele>160.19689941406</ele>
        <time>2014-05-26T07:55:38Z</time>
      </trkpt>
      <trkpt lat="43.43382" lon="5.30745">
        <ele>159.71618652344</ele>
        <time>2014-05-26T07:55:58Z</time>
      </trkpt>
      <trkpt lat="43.43378" lon="5.30745">
        <ele>160.19689941406</ele>
        <time>2014-05-26T07:56:24Z</time>
      </trkpt>
      <trkpt lat="43.43372" lon="5.30748">
        <ele>160.19689941406</ele>
        <time>2014-05-26T07:56:42Z</time>
      </trkpt>
      <trkpt lat="43.4337" lon="5.30748">
        <ele>160.19689941406</ele>
        <time>2014-05-26T07:57:05Z</time>
      </trkpt>
      <trkpt lat="43.43366" lon="5.30755">
        <ele>160.19689941406</ele>
        <time>2014-05-26T07:57:22Z</time>
      </trkpt>
      <trkpt lat="43.43364" lon="5.30774">
        <ele>160.67749023438</ele>
        <time>2014-05-26T07:57:40Z</time>
      </trkpt>
      <trkpt lat="43.43365" lon="5.30796">
        <ele>160.67749023438</ele>
        <time>2014-05-26T07:57:58Z</time>
      </trkpt>
      <trkpt lat="43.43366" lon="5.30807">
        <ele>160.67749023438</ele>
        <time>2014-05-26T07:58:08Z</time>
      </trkpt>
      <trkpt lat="43.43356" lon="5.30818">
        <ele>161.158203125</ele>
        <time>2014-05-26T07:58:23Z</time>
      </trkpt>
      <trkpt lat="43.43354" lon="5.30819">
        <ele>161.158203125</ele>
        <time>2014-05-26T07:58:25Z</time>
      </trkpt>
      <trkpt lat="43.43335" lon="5.30832">
        <ele>162.11950683594</ele>
        <time>2014-05-26T07:58:47Z</time>
      </trkpt>
      <trkpt lat="43.43328" lon="5.30841">
        <ele>162.60009765625</ele>
        <time>2014-05-26T07:58:58Z</time>
      </trkpt>
      <trkpt lat="43.43319" lon="5.30861">
        <ele>162.11950683594</ele>
        <time>2014-05-26T07:59:16Z</time>
      </trkpt>
      <trkpt lat="43.43314" lon="5.3087">
        <ele>162.11950683594</ele>
        <time>2014-05-26T07:59:31Z</time>
      </trkpt>
      <trkpt lat="43.43314" lon="5.30867">
        <ele>162.11950683594</ele>
        <time>2014-05-26T08:00:19Z</time>
      </trkpt>
      <trkpt lat="43.4331" lon="5.30877">
        <ele>161.63891601562</ele>
        <time>2014-05-26T08:01:35Z</time>
      </trkpt>
      <trkpt lat="43.43302" lon="5.30879">
        <ele>161.158203125</ele>
        <time>2014-05-26T08:01:43Z</time>
      </trkpt>
      <trkpt lat="43.43291" lon="5.30889">
        <ele>161.63891601562</ele>
        <time>2014-05-26T08:01:59Z</time>
      </trkpt>
      <trkpt lat="43.43279" lon="5.30893">
        <ele>162.11950683594</ele>
        <time>2014-05-26T08:02:14Z</time>
      </trkpt>
      <trkpt lat="43.43277" lon="5.30894">
        <ele>161.63891601562</ele>
        <time>2014-05-26T08:02:17Z</time>
      </trkpt>
      <trkpt lat="43.43268" lon="5.30899">
        <ele>160.67749023438</ele>
        <time>2014-05-26T08:02:27Z</time>
      </trkpt>
      <trkpt lat="43.43263" lon="5.30893">
        <ele>160.19689941406</ele>
        <time>2014-05-26T08:02:34Z</time>
      </trkpt>
      <trkpt lat="43.43261" lon="5.30889">
        <ele>161.63891601562</ele>
        <time>2014-05-26T08:02:37Z</time>
      </trkpt>
      <trkpt lat="43.43256" lon="5.30873">
        <ele>162.11950683594</ele>
        <time>2014-05-26T08:02:49Z</time>
      </trkpt>
      <trkpt lat="43.43249" lon="5.30854">
        <ele>163.08081054688</ele>
        <time>2014-05-26T08:03:06Z</time>
      </trkpt>
      <trkpt lat="43.43249" lon="5.30837">
        <ele>164.04211425781</ele>
        <time>2014-05-26T08:03:21Z</time>
      </trkpt>
      <trkpt lat="43.43244" lon="5.30828">
        <ele>164.52270507812</ele>
        <time>2014-05-26T08:03:37Z</time>
      </trkpt>
      <trkpt lat="43.43243" lon="5.30811">
        <ele>165.00341796875</ele>
        <time>2014-05-26T08:03:53Z</time>
      </trkpt>
      <trkpt lat="43.43234" lon="5.30793">
        <ele>165.00341796875</ele>
        <time>2014-05-26T08:04:12Z</time>
      </trkpt>
      <trkpt lat="43.43225" lon="5.30774">
        <ele>165.48413085938</ele>
        <time>2014-05-26T08:04:31Z</time>
      </trkpt>
      <trkpt lat="43.43218" lon="5.30754">
        <ele>165.96472167969</ele>
        <time>2014-05-26T08:04:50Z</time>
      </trkpt>
      <trkpt lat="43.43218" lon="5.30749">
        <ele>165.00341796875</ele>
        <time>2014-05-26T08:04:54Z</time>
      </trkpt>
      <trkpt lat="43.43224" lon="5.30723">
        <ele>165.48413085938</ele>
        <time>2014-05-26T08:05:19Z</time>
      </trkpt>
      <trkpt lat="43.43225" lon="5.30724">
        <ele>165.48413085938</ele>
        <time>2014-05-26T08:06:11Z</time>
      </trkpt>
      <trkpt lat="43.43229" lon="5.30726">
        <ele>165.96472167969</ele>
        <time>2014-05-26T08:06:27Z</time>
      </trkpt>
      <trkpt lat="43.43233" lon="5.30726">
        <ele>165.48413085938</ele>
        <time>2014-05-26T08:06:40Z</time>
      </trkpt>
      <trkpt lat="43.43244" lon="5.30721">
        <ele>165.00341796875</ele>
        <time>2014-05-26T08:06:50Z</time>
      </trkpt>
      <trkpt lat="43.43252" lon="5.30709">
        <ele>165.48413085938</ele>
        <time>2014-05-26T08:07:08Z</time>
      </trkpt>
      <trkpt lat="43.4326" lon="5.30719">
        <ele>163.5615234375</ele>
        <time>2014-05-26T08:07:26Z</time>
      </trkpt>
      <trkpt lat="43.43268" lon="5.30711">
        <ele>160.19689941406</ele>
        <time>2014-05-26T08:07:41Z</time>
      </trkpt>
      <trkpt lat="43.43268" lon="5.3071">
        <ele>160.19689941406</ele>
        <time>2014-05-26T08:07:42Z</time>
      </trkpt>
      <trkpt lat="43.43265" lon="5.30703">
        <ele>160.19689941406</ele>
        <time>2014-05-26T08:07:47Z</time>
      </trkpt>
      <trkpt lat="43.43255" lon="5.30695">
        <ele>159.23547363281</ele>
        <time>2014-05-26T08:08:04Z</time>
      </trkpt>
      <trkpt lat="43.43254" lon="5.30695">
        <ele>159.71618652344</ele>
        <time>2014-05-26T08:08:06Z</time>
      </trkpt>
      <trkpt lat="43.43253" lon="5.30702">
        <ele>161.158203125</ele>
        <time>2014-05-26T08:08:11Z</time>
      </trkpt>
      <trkpt lat="43.43255" lon="5.30705">
        <ele>162.11950683594</ele>
        <time>2014-05-26T08:08:35Z</time>
      </trkpt>
      <trkpt lat="43.43253" lon="5.30698">
        <ele>161.158203125</ele>
        <time>2014-05-26T08:08:45Z</time>
      </trkpt>
      <trkpt lat="43.43253" lon="5.30689">
        <ele>158.27416992188</ele>
        <time>2014-05-26T08:08:50Z</time>
      </trkpt>
      <trkpt lat="43.43252" lon="5.30685">
        <ele>160.19689941406</ele>
        <time>2014-05-26T08:08:53Z</time>
      </trkpt>
      <trkpt lat="43.43252" lon="5.30666">
        <ele>156.83215332031</ele>
        <time>2014-05-26T08:09:08Z</time>
      </trkpt>
      <trkpt lat="43.43249" lon="5.30635">
        <ele>153.46765136719</ele>
        <time>2014-05-26T08:09:31Z</time>
      </trkpt>
      <trkpt lat="43.43249" lon="5.30634">
        <ele>153.46765136719</ele>
        <time>2014-05-26T08:09:32Z</time>
      </trkpt>
      <trkpt lat="43.43261" lon="5.30607">
        <ele>154.42895507812</ele>
        <time>2014-05-26T08:09:55Z</time>
      </trkpt>
      <trkpt lat="43.43268" lon="5.30591">
        <ele>152.50634765625</ele>
        <time>2014-05-26T08:10:10Z</time>
      </trkpt>
      <trkpt lat="43.43281" lon="5.30563">
        <ele>151.06420898438</ele>
        <time>2014-05-26T08:10:35Z</time>
      </trkpt>
      <trkpt lat="43.43284" lon="5.30546">
        <ele>148.18041992188</ele>
        <time>2014-05-26T08:10:51Z</time>
      </trkpt>
      <trkpt lat="43.4328" lon="5.30516">
        <ele>145.77709960938</ele>
        <time>2014-05-26T08:11:15Z</time>
      </trkpt>
      <trkpt lat="43.43282" lon="5.30502">
        <ele>144.33520507812</ele>
        <time>2014-05-26T08:11:26Z</time>
      </trkpt>
      <trkpt lat="43.4329" lon="5.30491">
        <ele>143.85437011719</ele>
        <time>2014-05-26T08:11:44Z</time>
      </trkpt>
      <trkpt lat="43.43297" lon="5.30477">
        <ele>140.97045898438</ele>
        <time>2014-05-26T08:12:03Z</time>
      </trkpt>
      <trkpt lat="43.43305" lon="5.30464">
        <ele>139.52844238281</ele>
        <time>2014-05-26T08:12:20Z</time>
      </trkpt>
      <trkpt lat="43.43306" lon="5.30457">
        <ele>139.0478515625</ele>
        <time>2014-05-26T08:12:49Z</time>
      </trkpt>
      <trkpt lat="43.43301" lon="5.30442">
        <ele>138.56726074219</ele>
        <time>2014-05-26T08:14:47Z</time>
      </trkpt>
      <trkpt lat="43.43299" lon="5.30433">
        <ele>137.60583496094</ele>
        <time>2014-05-26T08:14:59Z</time>
      </trkpt>
      <trkpt lat="43.43297" lon="5.30428">
        <ele>136.16394042969</ele>
        <time>2014-05-26T08:15:15Z</time>
      </trkpt>
      <trkpt lat="43.43299" lon="5.30413">
        <ele>135.68310546875</ele>
        <time>2014-05-26T08:15:27Z</time>
      </trkpt>
      <trkpt lat="43.43301" lon="5.30406">
        <ele>135.20251464844</ele>
        <time>2014-05-26T08:15:46Z</time>
      </trkpt>
      <trkpt lat="43.43301" lon="5.30396">
        <ele>134.72192382812</ele>
        <time>2014-05-26T08:15:54Z</time>
      </trkpt>
      <trkpt lat="43.43297" lon="5.30376">
        <ele>134.2412109375</ele>
        <time>2014-05-26T08:16:13Z</time>
      </trkpt>
      <trkpt lat="43.43291" lon="5.30375">
        <ele>133.76049804688</ele>
        <time>2014-05-26T08:16:20Z</time>
      </trkpt>
      <trkpt lat="43.43276" lon="5.30385">
        <ele>133.27990722656</ele>
        <time>2014-05-26T08:16:38Z</time>
      </trkpt>
      <trkpt lat="43.43258" lon="5.30388">
        <ele>132.79931640625</ele>
        <time>2014-05-26T08:16:58Z</time>
      </trkpt>
      <trkpt lat="43.43249" lon="5.30367">
        <ele>131.837890625</ele>
        <time>2014-05-26T08:17:18Z</time>
      </trkpt>
      <trkpt lat="43.43244" lon="5.30359">
        <ele>130.39599609375</ele>
        <time>2014-05-26T08:17:33Z</time>
      </trkpt>
      <trkpt lat="43.43237" lon="5.30351">
        <ele>127.99255371094</ele>
        <time>2014-05-26T08:17:52Z</time>
      </trkpt>
      <trkpt lat="43.43234" lon="5.3034">
        <ele>127.03137207031</ele>
        <time>2014-05-26T08:18:05Z</time>
      </trkpt>
      <trkpt lat="43.43234" lon="5.30337">
        <ele>126.55065917969</ele>
        <time>2014-05-26T08:18:07Z</time>
      </trkpt>
      <trkpt lat="43.4324" lon="5.3033">
        <ele>126.55065917969</ele>
        <time>2014-05-26T08:18:24Z</time>
      </trkpt>
      <trkpt lat="43.43239" lon="5.30313">
        <ele>125.58935546875</ele>
        <time>2014-05-26T08:18:54Z</time>
      </trkpt>
      <trkpt lat="43.43236" lon="5.30296">
        <ele>125.10876464844</ele>
        <time>2014-05-26T08:19:09Z</time>
      </trkpt>
      <trkpt lat="43.43239" lon="5.30294">
        <ele>124.62805175781</ele>
        <time>2014-05-26T08:19:22Z</time>
      </trkpt>
      <trkpt lat="43.4324" lon="5.30299">
        <ele>125.58935546875</ele>
        <time>2014-05-26T08:20:03Z</time>
      </trkpt>
      <trkpt lat="43.4324" lon="5.30299">
        <ele>125.58935546875</ele>
        <time>2014-05-26T08:20:36Z</time>
      </trkpt>
      <trkpt lat="43.4324" lon="5.3029">
        <ele>124.62805175781</ele>
        <time>2014-05-26T08:20:48Z</time>
      </trkpt>
      <trkpt lat="43.43237" lon="5.30286">
        <ele>124.62805175781</ele>
        <time>2014-05-26T08:20:52Z</time>
      </trkpt>
      <trkpt lat="43.43239" lon="5.30271">
        <ele>123.66674804688</ele>
        <time>2014-05-26T08:21:07Z</time>
      </trkpt>
      <trkpt lat="43.43238" lon="5.30249">
        <ele>124.14733886719</ele>
        <time>2014-05-26T08:21:25Z</time>
      </trkpt>
      <trkpt lat="43.43237" lon="5.30241">
        <ele>122.70544433594</ele>
        <time>2014-05-26T08:21:38Z</time>
      </trkpt>
      <trkpt lat="43.43238" lon="5.30232">
        <ele>122.22473144531</ele>
        <time>2014-05-26T08:21:51Z</time>
      </trkpt>
      <trkpt lat="43.43238" lon="5.3022">
        <ele>121.744140625</ele>
        <time>2014-05-26T08:22:02Z</time>
      </trkpt>
      <trkpt lat="43.43237" lon="5.30208">
        <ele>121.26354980469</ele>
        <time>2014-05-26T08:22:13Z</time>
      </trkpt>
      <trkpt lat="43.43241" lon="5.30204">
        <ele>120.78283691406</ele>
        <time>2014-05-26T08:22:24Z</time>
      </trkpt>
      <trkpt lat="43.43244" lon="5.30197">
        <ele>120.78283691406</ele>
        <time>2014-05-26T08:23:00Z</time>
      </trkpt>
      <trkpt lat="43.43244" lon="5.30193">
        <ele>119.3408203125</ele>
        <time>2014-05-26T08:23:14Z</time>
      </trkpt>
      <trkpt lat="43.43245" lon="5.30176">
        <ele>119.3408203125</ele>
        <time>2014-05-26T08:23:48Z</time>
      </trkpt>
      <trkpt lat="43.43252" lon="5.30156">
        <ele>118.37939453125</ele>
        <time>2014-05-26T08:24:10Z</time>
      </trkpt>
      <trkpt lat="43.43252" lon="5.30146">
        <ele>118.37939453125</ele>
        <time>2014-05-26T08:24:18Z</time>
      </trkpt>
      <trkpt lat="43.4326" lon="5.30136">
        <ele>117.89880371094</ele>
        <time>2014-05-26T08:24:31Z</time>
      </trkpt>
      <trkpt lat="43.4326" lon="5.30123">
        <ele>117.89880371094</ele>
        <time>2014-05-26T08:24:40Z</time>
      </trkpt>
      <trkpt lat="43.43267" lon="5.30115">
        <ele>117.89880371094</ele>
        <time>2014-05-26T08:24:54Z</time>
      </trkpt>
      <trkpt lat="43.43269" lon="5.30109">
        <ele>117.41821289062</ele>
        <time>2014-05-26T08:25:06Z</time>
      </trkpt>
      <trkpt lat="43.43271" lon="5.30113">
        <ele>117.41821289062</ele>
        <time>2014-05-26T08:25:21Z</time>
      </trkpt>
      <trkpt lat="43.43272" lon="5.3011">
        <ele>118.37939453125</ele>
        <time>2014-05-26T08:25:45Z</time>
      </trkpt>
      <trkpt lat="43.43273" lon="5.30114">
        <ele>117.41821289062</ele>
        <time>2014-05-26T08:26:09Z</time>
      </trkpt>
      <trkpt lat="43.43269" lon="5.30109">
        <ele>116.45678710938</ele>
        <time>2014-05-26T08:26:41Z</time>
      </trkpt>
      <trkpt lat="43.4327" lon="5.30097">
        <ele>115.49560546875</ele>
        <time>2014-05-26T08:26:56Z</time>
      </trkpt>
      <trkpt lat="43.43269" lon="5.30085">
        <ele>115.01489257812</ele>
        <time>2014-05-26T08:27:12Z</time>
      </trkpt>
      <trkpt lat="43.43262" lon="5.30064">
        <ele>115.01489257812</ele>
        <time>2014-05-26T08:27:30Z</time>
      </trkpt>
      <trkpt lat="43.43255" lon="5.30052">
        <ele>115.01489257812</ele>
        <time>2014-05-26T08:27:47Z</time>
      </trkpt>
      <trkpt lat="43.43255" lon="5.30051">
        <ele>115.01489257812</ele>
        <time>2014-05-26T08:27:48Z</time>
      </trkpt>
      <trkpt lat="43.43252" lon="5.30035">
        <ele>114.5341796875</ele>
        <time>2014-05-26T08:28:04Z</time>
      </trkpt>
      <trkpt lat="43.43255" lon="5.30019">
        <ele>114.05358886719</ele>
        <time>2014-05-26T08:28:17Z</time>
      </trkpt>
      <trkpt lat="43.43255" lon="5.30019">
        <ele>113.57299804688</ele>
        <time>2014-05-26T08:28:18Z</time>
      </trkpt>
      <trkpt lat="43.43252" lon="5.29999">
        <ele>112.61157226562</ele>
        <time>2014-05-26T08:28:33Z</time>
      </trkpt>
      <trkpt lat="43.43254" lon="5.29991">
        <ele>112.13098144531</ele>
        <time>2014-05-26T08:28:45Z</time>
      </trkpt>
      <trkpt lat="43.43259" lon="5.29983">
        <ele>111.16955566406</ele>
        <time>2014-05-26T08:28:54Z</time>
      </trkpt>
      <trkpt lat="43.43265" lon="5.29972">
        <ele>111.16955566406</ele>
        <time>2014-05-26T08:29:10Z</time>
      </trkpt>
      <trkpt lat="43.43275" lon="5.29956">
        <ele>110.20825195312</ele>
        <time>2014-05-26T08:29:27Z</time>
      </trkpt>
      <trkpt lat="43.43276" lon="5.29952">
        <ele>109.72766113281</ele>
        <time>2014-05-26T08:29:33Z</time>
      </trkpt>
      <trkpt lat="43.43275" lon="5.29949">
        <ele>109.72766113281</ele>
        <time>2014-05-26T08:29:35Z</time>
      </trkpt>
      <trkpt lat="43.43281" lon="5.29937">
        <ele>110.20825195312</ele>
        <time>2014-05-26T08:29:49Z</time>
      </trkpt>
      <trkpt lat="43.43281" lon="5.29937">
        <ele>110.20825195312</ele>
        <time>2014-05-26T08:30:25Z</time>
      </trkpt>
      <trkpt lat="43.4328" lon="5.29934">
        <ele>109.24694824219</ele>
        <time>2014-05-26T08:30:59Z</time>
      </trkpt>
      <trkpt lat="43.43281" lon="5.29924">
        <ele>107.80505371094</ele>
        <time>2014-05-26T08:31:13Z</time>
      </trkpt>
      <trkpt lat="43.4328" lon="5.29922">
        <ele>107.80505371094</ele>
        <time>2014-05-26T08:31:42Z</time>
      </trkpt>
      <trkpt lat="43.43283" lon="5.2992">
        <ele>108.28564453125</ele>
        <time>2014-05-26T08:32:12Z</time>
      </trkpt>
      <trkpt lat="43.4328" lon="5.29916">
        <ele>108.28564453125</ele>
        <time>2014-05-26T08:32:46Z</time>
      </trkpt>
      <trkpt lat="43.43279" lon="5.29913">
        <ele>108.76623535156</ele>
        <time>2014-05-26T08:33:05Z</time>
      </trkpt>
      <trkpt lat="43.43274" lon="5.29908">
        <ele>108.76623535156</ele>
        <time>2014-05-26T08:33:40Z</time>
      </trkpt>
      <trkpt lat="43.43275" lon="5.29904">
        <ele>108.76623535156</ele>
        <time>2014-05-26T08:34:01Z</time>
      </trkpt>
      <trkpt lat="43.43268" lon="5.29896">
        <ele>108.76623535156</ele>
        <time>2014-05-26T08:34:13Z</time>
      </trkpt>
      <trkpt lat="43.43257" lon="5.29885">
        <ele>108.76623535156</ele>
        <time>2014-05-26T08:34:28Z</time>
      </trkpt>
      <trkpt lat="43.43245" lon="5.29874">
        <ele>108.76623535156</ele>
        <time>2014-05-26T08:34:42Z</time>
      </trkpt>
      <trkpt lat="43.43239" lon="5.29872">
        <ele>108.28564453125</ele>
        <time>2014-05-26T08:34:47Z</time>
      </trkpt>
      <trkpt lat="43.43231" lon="5.29865">
        <ele>108.28564453125</ele>
        <time>2014-05-26T08:35:02Z</time>
      </trkpt>
      <trkpt lat="43.43229" lon="5.29864">
        <ele>107.32434082031</ele>
        <time>2014-05-26T08:35:13Z</time>
      </trkpt>
      <trkpt lat="43.43228" lon="5.29857">
        <ele>107.80505371094</ele>
        <time>2014-05-26T08:35:28Z</time>
      </trkpt>
      <trkpt lat="43.43228" lon="5.2985">
        <ele>109.24694824219</ele>
        <time>2014-05-26T08:36:03Z</time>
      </trkpt>
      <trkpt lat="43.43227" lon="5.29839">
        <ele>111.16955566406</ele>
        <time>2014-05-26T08:36:15Z</time>
      </trkpt>
      <trkpt lat="43.43221" lon="5.29837">
        <ele>111.16955566406</ele>
        <time>2014-05-26T08:36:27Z</time>
      </trkpt>
      <trkpt lat="43.43221" lon="5.29834">
        <ele>111.16955566406</ele>
        <time>2014-05-26T08:36:32Z</time>
      </trkpt>
      <trkpt lat="43.43221" lon="5.29826">
        <ele>111.65026855469</ele>
        <time>2014-05-26T08:36:42Z</time>
      </trkpt>
      <trkpt lat="43.43214" lon="5.29818">
        <ele>111.65026855469</ele>
        <time>2014-05-26T08:36:57Z</time>
      </trkpt>
      <trkpt lat="43.43216" lon="5.29816">
        <ele>112.13098144531</ele>
        <time>2014-05-26T08:36:59Z</time>
      </trkpt>
      <trkpt lat="43.43215" lon="5.2981">
        <ele>111.65026855469</ele>
        <time>2014-05-26T08:37:10Z</time>
      </trkpt>
      <trkpt lat="43.4322" lon="5.29808">
        <ele>113.09228515625</ele>
        <time>2014-05-26T08:37:23Z</time>
      </trkpt>
      <trkpt lat="43.43216" lon="5.29818">
        <ele>112.61157226562</ele>
        <time>2014-05-26T08:37:37Z</time>
      </trkpt>
      <trkpt lat="43.43215" lon="5.29818">
        <ele>112.13098144531</ele>
        <time>2014-05-26T08:37:57Z</time>
      </trkpt>
      <trkpt lat="43.43216" lon="5.2982">
        <ele>112.13098144531</ele>
        <time>2014-05-26T08:38:09Z</time>
      </trkpt>
      <trkpt lat="43.43216" lon="5.29821">
        <ele>111.65026855469</ele>
        <time>2014-05-26T08:38:36Z</time>
      </trkpt>
      <trkpt lat="43.43218" lon="5.2982">
        <ele>112.61157226562</ele>
        <time>2014-05-26T08:38:56Z</time>
      </trkpt>
      <trkpt lat="43.43222" lon="5.29831">
        <ele>112.13098144531</ele>
        <time>2014-05-26T08:39:09Z</time>
      </trkpt>
      <trkpt lat="43.43226" lon="5.29835">
        <ele>112.13098144531</ele>
        <time>2014-05-26T08:39:23Z</time>
      </trkpt>
      <trkpt lat="43.43224" lon="5.29839">
        <ele>109.72766113281</ele>
        <time>2014-05-26T08:39:39Z</time>
      </trkpt>
      <trkpt lat="43.43224" lon="5.29838">
        <ele>109.72766113281</ele>
        <time>2014-05-26T08:40:17Z</time>
      </trkpt>
      <trkpt lat="43.43221" lon="5.29831">
        <ele>111.65026855469</ele>
        <time>2014-05-26T08:42:22Z</time>
      </trkpt>
      <trkpt lat="43.43219" lon="5.29823">
        <ele>112.61157226562</ele>
        <time>2014-05-26T08:42:33Z</time>
      </trkpt>
      <trkpt lat="43.43214" lon="5.2981">
        <ele>112.61157226562</ele>
        <time>2014-05-26T08:42:49Z</time>
      </trkpt>
      <trkpt lat="43.43219" lon="5.29806">
        <ele>112.61157226562</ele>
        <time>2014-05-26T08:43:01Z</time>
      </trkpt>
      <trkpt lat="43.43229" lon="5.29795">
        <ele>112.61157226562</ele>
        <time>2014-05-26T08:43:09Z</time>
      </trkpt>
      <trkpt lat="43.43238" lon="5.29773">
        <ele>113.57299804688</ele>
        <time>2014-05-26T08:43:22Z</time>
      </trkpt>
      <trkpt lat="43.43241" lon="5.29769">
        <ele>113.09228515625</ele>
        <time>2014-05-26T08:43:26Z</time>
      </trkpt>
      <trkpt lat="43.43243" lon="5.29767">
        <ele>114.05358886719</ele>
        <time>2014-05-26T08:43:38Z</time>
      </trkpt>
      <trkpt lat="43.43243" lon="5.29767">
        <ele>114.05358886719</ele>
        <time>2014-05-26T08:43:48Z</time>
      </trkpt>
      <trkpt lat="43.4325" lon="5.29752">
        <ele>113.09228515625</ele>
        <time>2014-05-26T08:44:05Z</time>
      </trkpt>
      <trkpt lat="43.4325" lon="5.29752">
        <ele>112.61157226562</ele>
        <time>2014-05-26T08:44:08Z</time>
      </trkpt>
      <trkpt lat="43.43244" lon="5.29754">
        <ele>110.68884277344</ele>
        <time>2014-05-26T08:44:26Z</time>
      </trkpt>
      <trkpt lat="43.43239" lon="5.2975">
        <ele>107.32434082031</ele>
        <time>2014-05-26T08:44:52Z</time>
      </trkpt>
      <trkpt lat="43.43233" lon="5.29748">
        <ele>106.84362792969</ele>
        <time>2014-05-26T08:44:57Z</time>
      </trkpt>
      <trkpt lat="43.4323" lon="5.2975">
        <ele>106.36303710938</ele>
        <time>2014-05-26T08:44:59Z</time>
      </trkpt>
      <trkpt lat="43.43226" lon="5.29752">
        <ele>106.36303710938</ele>
        <time>2014-05-26T08:45:03Z</time>
      </trkpt>
      <trkpt lat="43.43219" lon="5.29752">
        <ele>105.40173339844</ele>
        <time>2014-05-26T08:45:22Z</time>
      </trkpt>
      <trkpt lat="43.43214" lon="5.29752">
        <ele>104.92102050781</ele>
        <time>2014-05-26T08:45:50Z</time>
      </trkpt>
      <trkpt lat="43.43209" lon="5.29753">
        <ele>104.4404296875</ele>
        <time>2014-05-26T08:45:54Z</time>
      </trkpt>
      <trkpt lat="43.43204" lon="5.29746">
        <ele>103.95971679688</ele>
        <time>2014-05-26T08:46:04Z</time>
      </trkpt>
      <trkpt lat="43.43201" lon="5.29754">
        <ele>103.47900390625</ele>
        <time>2014-05-26T08:46:30Z</time>
      </trkpt>
      <trkpt lat="43.43198" lon="5.29753">
        <ele>102.99829101562</ele>
        <time>2014-05-26T08:46:33Z</time>
      </trkpt>
      <trkpt lat="43.43196" lon="5.29754">
        <ele>102.51770019531</ele>
        <time>2014-05-26T08:46:45Z</time>
      </trkpt>
      <trkpt lat="43.43205" lon="5.29752">
        <ele>103.95971679688</ele>
        <time>2014-05-26T08:47:02Z</time>
      </trkpt>
      <trkpt lat="43.43213" lon="5.2975">
        <ele>105.40173339844</ele>
        <time>2014-05-26T08:47:23Z</time>
      </trkpt>
      <trkpt lat="43.43213" lon="5.29751">
        <ele>104.92102050781</ele>
        <time>2014-05-26T08:47:59Z</time>
      </trkpt>
      <trkpt lat="43.43209" lon="5.29756">
        <ele>104.92102050781</ele>
        <time>2014-05-26T08:48:18Z</time>
      </trkpt>
      <trkpt lat="43.432" lon="5.29756">
        <ele>103.95971679688</ele>
        <time>2014-05-26T08:48:29Z</time>
      </trkpt>
      <trkpt lat="43.43202" lon="5.29766">
        <ele>102.99829101562</ele>
        <time>2014-05-26T08:48:33Z</time>
      </trkpt>
      <trkpt lat="43.43201" lon="5.29797">
        <ele>103.95971679688</ele>
        <time>2014-05-26T08:48:46Z</time>
      </trkpt>
      <trkpt lat="43.43202" lon="5.29823">
        <ele>104.4404296875</ele>
        <time>2014-05-26T08:48:59Z</time>
      </trkpt>
      <trkpt lat="43.43202" lon="5.29832">
        <ele>103.95971679688</ele>
        <time>2014-05-26T08:49:03Z</time>
      </trkpt>
      <trkpt lat="43.43205" lon="5.29837">
        <ele>103.95971679688</ele>
        <time>2014-05-26T08:49:07Z</time>
      </trkpt>
      <trkpt lat="43.43208" lon="5.29841">
        <ele>103.47900390625</ele>
        <time>2014-05-26T08:49:10Z</time>
      </trkpt>
      <trkpt lat="43.43205" lon="5.29851">
        <ele>103.95971679688</ele>
        <time>2014-05-26T08:49:15Z</time>
      </trkpt>
      <trkpt lat="43.43199" lon="5.29851">
        <ele>104.4404296875</ele>
        <time>2014-05-26T08:49:18Z</time>
      </trkpt>
      <trkpt lat="43.43192" lon="5.29865">
        <ele>104.4404296875</ele>
        <time>2014-05-26T08:49:35Z</time>
      </trkpt>
      <trkpt lat="43.43192" lon="5.29866">
        <ele>104.92102050781</ele>
        <time>2014-05-26T08:49:50Z</time>
      </trkpt>
      <trkpt lat="43.43193" lon="5.29859">
        <ele>104.92102050781</ele>
        <time>2014-05-26T08:50:09Z</time>
      </trkpt>
      <trkpt lat="43.43196" lon="5.29852">
        <ele>104.4404296875</ele>
        <time>2014-05-26T08:50:15Z</time>
      </trkpt>
      <trkpt lat="43.43196" lon="5.2985">
        <ele>104.4404296875</ele>
        <time>2014-05-26T08:50:17Z</time>
      </trkpt>
      <trkpt lat="43.43204" lon="5.29835">
        <ele>103.47900390625</ele>
        <time>2014-05-26T08:50:28Z</time>
      </trkpt>
      <trkpt lat="43.432" lon="5.29818">
        <ele>103.95971679688</ele>
        <time>2014-05-26T08:50:40Z</time>
      </trkpt>
      <trkpt lat="43.43197" lon="5.29803">
        <ele>104.4404296875</ele>
        <time>2014-05-26T08:50:49Z</time>
      </trkpt>
      <trkpt lat="43.43195" lon="5.29796">
        <ele>103.95971679688</ele>
        <time>2014-05-26T08:50:53Z</time>
      </trkpt>
      <trkpt lat="43.43194" lon="5.29772">
        <ele>103.47900390625</ele>
        <time>2014-05-26T08:51:07Z</time>
      </trkpt>
      <trkpt lat="43.43195" lon="5.29752">
        <ele>103.95971679688</ele>
        <time>2014-05-26T08:51:19Z</time>
      </trkpt>
      <trkpt lat="43.432" lon="5.29739">
        <ele>104.92102050781</ele>
        <time>2014-05-26T08:51:37Z</time>
      </trkpt>
      <trkpt lat="43.43199" lon="5.29738">
        <ele>104.92102050781</ele>
        <time>2014-05-26T08:52:07Z</time>
      </trkpt>
      <trkpt lat="43.432" lon="5.29733">
        <ele>104.92102050781</ele>
        <time>2014-05-26T08:52:50Z</time>
      </trkpt>
      <trkpt lat="43.43204" lon="5.29742">
        <ele>104.92102050781</ele>
        <time>2014-05-26T08:53:10Z</time>
      </trkpt>
      <trkpt lat="43.43204" lon="5.29743">
        <ele>105.40173339844</ele>
        <time>2014-05-26T08:54:22Z</time>
      </trkpt>
      <trkpt lat="43.43204" lon="5.2974">
        <ele>105.40173339844</ele>
        <time>2014-05-26T08:54:50Z</time>
      </trkpt>
      <trkpt lat="43.43206" lon="5.29744">
        <ele>105.40173339844</ele>
        <time>2014-05-26T08:55:21Z</time>
      </trkpt>
      <trkpt lat="43.43206" lon="5.29743">
        <ele>105.40173339844</ele>
        <time>2014-05-26T08:56:19Z</time>
      </trkpt>
      <trkpt lat="43.43212" lon="5.29746">
        <ele>105.40173339844</ele>
        <time>2014-05-26T08:56:26Z</time>
      </trkpt>
      <trkpt lat="43.43216" lon="5.29754">
        <ele>105.88244628906</ele>
        <time>2014-05-26T08:56:38Z</time>
      </trkpt>
      <trkpt lat="43.43216" lon="5.29755">
        <ele>105.88244628906</ele>
        <time>2014-05-26T08:57:00Z</time>
      </trkpt>
      <trkpt lat="43.43215" lon="5.29756">
        <ele>105.88244628906</ele>
        <time>2014-05-26T08:58:51Z</time>
      </trkpt>
      <trkpt lat="43.43215" lon="5.29754">
        <ele>106.36303710938</ele>
        <time>2014-05-26T09:01:29Z</time>
      </trkpt>
      <trkpt lat="43.43221" lon="5.29735">
        <ele>105.40173339844</ele>
        <time>2014-05-26T09:01:44Z</time>
      </trkpt>
      <trkpt lat="43.43225" lon="5.29719">
        <ele>106.84362792969</ele>
        <time>2014-05-26T09:01:59Z</time>
      </trkpt>
      <trkpt lat="43.43223" lon="5.29717">
        <ele>106.36303710938</ele>
        <time>2014-05-26T09:02:03Z</time>
      </trkpt>
      <trkpt lat="43.43214" lon="5.29702">
        <ele>105.40173339844</ele>
        <time>2014-05-26T09:02:24Z</time>
      </trkpt>
      <trkpt lat="43.43213" lon="5.29688">
        <ele>105.40173339844</ele>
        <time>2014-05-26T09:02:33Z</time>
      </trkpt>
      <trkpt lat="43.43213" lon="5.29681">
        <ele>105.40173339844</ele>
        <time>2014-05-26T09:02:50Z</time>
      </trkpt>
      <trkpt lat="43.43211" lon="5.29673">
        <ele>104.92102050781</ele>
        <time>2014-05-26T09:02:58Z</time>
      </trkpt>
      <trkpt lat="43.43198" lon="5.29651">
        <ele>103.95971679688</ele>
        <time>2014-05-26T09:03:20Z</time>
      </trkpt>
      <trkpt lat="43.43186" lon="5.29647">
        <ele>102.037109375</ele>
        <time>2014-05-26T09:03:32Z</time>
      </trkpt>
      <trkpt lat="43.4318" lon="5.29644">
        <ele>100.11450195312</ele>
        <time>2014-05-26T09:03:38Z</time>
      </trkpt>
      <trkpt lat="43.43167" lon="5.29633">
        <ele>99.6337890625</ele>
        <time>2014-05-26T09:03:54Z</time>
      </trkpt>
      <trkpt lat="43.43149" lon="5.29624">
        <ele>100.59509277344</ele>
        <time>2014-05-26T09:04:11Z</time>
      </trkpt>
      <trkpt lat="43.43131" lon="5.29626">
        <ele>99.6337890625</ele>
        <time>2014-05-26T09:04:33Z</time>
      </trkpt>
      <trkpt lat="43.43121" lon="5.29621">
        <ele>99.153076171875</ele>
        <time>2014-05-26T09:05:04Z</time>
      </trkpt>
      <trkpt lat="43.43114" lon="5.29619">
        <ele>99.153076171875</ele>
        <time>2014-05-26T09:05:35Z</time>
      </trkpt>
      <trkpt lat="43.43094" lon="5.29607">
        <ele>97.711181640625</ele>
        <time>2014-05-26T09:05:53Z</time>
      </trkpt>
      <trkpt lat="43.43083" lon="5.2959">
        <ele>97.711181640625</ele>
        <time>2014-05-26T09:06:12Z</time>
      </trkpt>
      <trkpt lat="43.43072" lon="5.29574">
        <ele>98.19189453125</ele>
        <time>2014-05-26T09:06:32Z</time>
      </trkpt>
      <trkpt lat="43.43059" lon="5.29559">
        <ele>98.19189453125</ele>
        <time>2014-05-26T09:06:48Z</time>
      </trkpt>
      <trkpt lat="43.4305" lon="5.2956">
        <ele>96.749877929688</ele>
        <time>2014-05-26T09:06:58Z</time>
      </trkpt>
      <trkpt lat="43.43047" lon="5.29578">
        <ele>96.269287109375</ele>
        <time>2014-05-26T09:07:14Z</time>
      </trkpt>
      <trkpt lat="43.43045" lon="5.29576">
        <ele>95.788452148438</ele>
        <time>2014-05-26T09:07:21Z</time>
      </trkpt>
      <trkpt lat="43.4305" lon="5.29565">
        <ele>95.788452148438</ele>
        <time>2014-05-26T09:07:26Z</time>
      </trkpt>
      <trkpt lat="43.43051" lon="5.29553">
        <ele>97.23046875</ele>
        <time>2014-05-26T09:07:39Z</time>
      </trkpt>
      <trkpt lat="43.43032" lon="5.29546">
        <ele>99.153076171875</ele>
        <time>2014-05-26T09:08:01Z</time>
      </trkpt>
      <trkpt lat="43.43024" lon="5.29541">
        <ele>99.6337890625</ele>
        <time>2014-05-26T09:08:09Z</time>
      </trkpt>
      <trkpt lat="43.43011" lon="5.29534">
        <ele>97.711181640625</ele>
        <time>2014-05-26T09:08:27Z</time>
      </trkpt>
      <trkpt lat="43.43002" lon="5.29529">
        <ele>97.711181640625</ele>
        <time>2014-05-26T09:08:40Z</time>
      </trkpt>
      <trkpt lat="43.42993" lon="5.29524">
        <ele>96.749877929688</ele>
        <time>2014-05-26T09:08:51Z</time>
      </trkpt>
      <trkpt lat="43.42986" lon="5.29521">
        <ele>96.749877929688</ele>
        <time>2014-05-26T09:09:06Z</time>
      </trkpt>
      <trkpt lat="43.42976" lon="5.29502">
        <ele>96.269287109375</ele>
        <time>2014-05-26T09:09:26Z</time>
      </trkpt>
      <trkpt lat="43.42966" lon="5.29489">
        <ele>94.8271484375</ele>
        <time>2014-05-26T09:09:46Z</time>
      </trkpt>
      <trkpt lat="43.42963" lon="5.29488">
        <ele>94.346557617188</ele>
        <time>2014-05-26T09:09:48Z</time>
      </trkpt>
      <trkpt lat="43.42947" lon="5.29485">
        <ele>94.8271484375</ele>
        <time>2014-05-26T09:10:03Z</time>
      </trkpt>
      <trkpt lat="43.42926" lon="5.29485">
        <ele>95.788452148438</ele>
        <time>2014-05-26T09:10:20Z</time>
      </trkpt>
      <trkpt lat="43.42929" lon="5.29485">
        <ele>95.788452148438</ele>
        <time>2014-05-26T09:10:51Z</time>
      </trkpt>
      <trkpt lat="43.4293" lon="5.29492">
        <ele>95.307739257812</ele>
        <time>2014-05-26T09:11:30Z</time>
      </trkpt>
      <trkpt lat="43.42933" lon="5.29491">
        <ele>94.346557617188</ele>
        <time>2014-05-26T09:12:08Z</time>
      </trkpt>
      <trkpt lat="43.42938" lon="5.29488">
        <ele>94.346557617188</ele>
        <time>2014-05-26T09:12:12Z</time>
      </trkpt>
      <trkpt lat="43.4295" lon="5.29487">
        <ele>94.346557617188</ele>
        <time>2014-05-26T09:12:28Z</time>
      </trkpt>
      <trkpt lat="43.42966" lon="5.29495">
        <ele>94.8271484375</ele>
        <time>2014-05-26T09:12:43Z</time>
      </trkpt>
      <trkpt lat="43.42979" lon="5.29509">
        <ele>96.269287109375</ele>
        <time>2014-05-26T09:12:55Z</time>
      </trkpt>
      <trkpt lat="43.42995" lon="5.29523">
        <ele>96.749877929688</ele>
        <time>2014-05-26T09:13:09Z</time>
      </trkpt>
      <trkpt lat="43.43011" lon="5.29532">
        <ele>97.23046875</ele>
        <time>2014-05-26T09:13:18Z</time>
      </trkpt>
      <trkpt lat="43.43017" lon="5.29534">
        <ele>97.711181640625</ele>
        <time>2014-05-26T09:13:24Z</time>
      </trkpt>
      <trkpt lat="43.43031" lon="5.29541">
        <ele>98.672485351562</ele>
        <time>2014-05-26T09:13:38Z</time>
      </trkpt>
      <trkpt lat="43.43049" lon="5.29555">
        <ele>96.749877929688</ele>
        <time>2014-05-26T09:13:58Z</time>
      </trkpt>
      <trkpt lat="43.43068" lon="5.29577">
        <ele>97.711181640625</ele>
        <time>2014-05-26T09:14:19Z</time>
      </trkpt>
      <trkpt lat="43.43078" lon="5.29589">
        <ele>97.711181640625</ele>
        <time>2014-05-26T09:14:31Z</time>
      </trkpt>
      <trkpt lat="43.4309" lon="5.29604">
        <ele>97.711181640625</ele>
        <time>2014-05-26T09:14:45Z</time>
      </trkpt>
      <trkpt lat="43.43108" lon="5.29612">
        <ele>98.19189453125</ele>
        <time>2014-05-26T09:14:59Z</time>
      </trkpt>
      <trkpt lat="43.4313" lon="5.29619">
        <ele>99.6337890625</ele>
        <time>2014-05-26T09:15:17Z</time>
      </trkpt>
      <trkpt lat="43.43152" lon="5.29628">
        <ele>100.59509277344</ele>
        <time>2014-05-26T09:15:33Z</time>
      </trkpt>
      <trkpt lat="43.43166" lon="5.29637">
        <ele>99.6337890625</ele>
        <time>2014-05-26T09:15:45Z</time>
      </trkpt>
      <trkpt lat="43.43176" lon="5.29645">
        <ele>100.11450195312</ele>
        <time>2014-05-26T09:15:56Z</time>
      </trkpt>
      <trkpt lat="43.43187" lon="5.29647">
        <ele>101.55639648438</ele>
        <time>2014-05-26T09:16:04Z</time>
      </trkpt>
      <trkpt lat="43.43206" lon="5.2965">
        <ele>103.95971679688</ele>
        <time>2014-05-26T09:16:19Z</time>
      </trkpt>
      <trkpt lat="43.43213" lon="5.29656">
        <ele>104.4404296875</ele>
        <time>2014-05-26T09:16:27Z</time>
      </trkpt>
      <trkpt lat="43.43213" lon="5.29673">
        <ele>104.4404296875</ele>
        <time>2014-05-26T09:16:38Z</time>
      </trkpt>
      <trkpt lat="43.43215" lon="5.29678">
        <ele>104.92102050781</ele>
        <time>2014-05-26T09:16:42Z</time>
      </trkpt>
      <trkpt lat="43.43219" lon="5.29685">
        <ele>105.40173339844</ele>
        <time>2014-05-26T09:16:47Z</time>
      </trkpt>
      <trkpt lat="43.43228" lon="5.29703">
        <ele>106.36303710938</ele>
        <time>2014-05-26T09:17:02Z</time>
      </trkpt>
      <trkpt lat="43.4323" lon="5.29706">
        <ele>106.36303710938</ele>
        <time>2014-05-26T09:17:05Z</time>
      </trkpt>
      <trkpt lat="43.4323" lon="5.29714">
        <ele>106.84362792969</ele>
        <time>2014-05-26T09:17:10Z</time>
      </trkpt>
      <trkpt lat="43.43228" lon="5.2974">
        <ele>104.92102050781</ele>
        <time>2014-05-26T09:17:26Z</time>
      </trkpt>
      <trkpt lat="43.43232" lon="5.29747">
        <ele>105.88244628906</ele>
        <time>2014-05-26T09:17:32Z</time>
      </trkpt>
      <trkpt lat="43.43246" lon="5.29746">
        <ele>108.76623535156</ele>
        <time>2014-05-26T09:17:47Z</time>
      </trkpt>
      <trkpt lat="43.43253" lon="5.29744">
        <ele>109.24694824219</ele>
        <time>2014-05-26T09:17:58Z</time>
      </trkpt>
      <trkpt lat="43.43254" lon="5.29745">
        <ele>111.65026855469</ele>
        <time>2014-05-26T09:18:12Z</time>
      </trkpt>
      <trkpt lat="43.43252" lon="5.2975">
        <ele>113.09228515625</ele>
        <time>2014-05-26T09:18:20Z</time>
      </trkpt>
      <trkpt lat="43.43246" lon="5.29751">
        <ele>112.13098144531</ele>
        <time>2014-05-26T09:18:31Z</time>
      </trkpt>
      <trkpt lat="43.43245" lon="5.29752">
        <ele>112.13098144531</ele>
        <time>2014-05-26T09:18:58Z</time>
      </trkpt>
      <trkpt lat="43.43249" lon="5.29752">
        <ele>113.57299804688</ele>
        <time>2014-05-26T09:19:40Z</time>
      </trkpt>
      <trkpt lat="43.4325" lon="5.29753">
        <ele>113.09228515625</ele>
        <time>2014-05-26T09:19:45Z</time>
      </trkpt>
      <trkpt lat="43.43251" lon="5.29756">
        <ele>113.57299804688</ele>
        <time>2014-05-26T09:20:09Z</time>
      </trkpt>
      <trkpt lat="43.43246" lon="5.29759">
        <ele>114.5341796875</ele>
        <time>2014-05-26T09:20:32Z</time>
      </trkpt>
      <trkpt lat="43.43235" lon="5.29782">
        <ele>114.5341796875</ele>
        <time>2014-05-26T09:20:47Z</time>
      </trkpt>
      <trkpt lat="43.43229" lon="5.29793">
        <ele>113.57299804688</ele>
        <time>2014-05-26T09:20:55Z</time>
      </trkpt>
      <trkpt lat="43.4322" lon="5.29807">
        <ele>113.57299804688</ele>
        <time>2014-05-26T09:21:10Z</time>
      </trkpt>
      <trkpt lat="43.4322" lon="5.29812">
        <ele>113.57299804688</ele>
        <time>2014-05-26T09:21:13Z</time>
      </trkpt>
      <trkpt lat="43.4322" lon="5.29819">
        <ele>113.57299804688</ele>
        <time>2014-05-26T09:21:16Z</time>
      </trkpt>
      <trkpt lat="43.43223" lon="5.29825">
        <ele>112.61157226562</ele>
        <time>2014-05-26T09:21:20Z</time>
      </trkpt>
      <trkpt lat="43.43224" lon="5.29827">
        <ele>112.61157226562</ele>
        <time>2014-05-26T09:21:22Z</time>
      </trkpt>
      <trkpt lat="43.43229" lon="5.29835">
        <ele>112.61157226562</ele>
        <time>2014-05-26T09:21:33Z</time>
      </trkpt>
      <trkpt lat="43.43232" lon="5.29841">
        <ele>112.61157226562</ele>
        <time>2014-05-26T09:21:37Z</time>
      </trkpt>
      <trkpt lat="43.43236" lon="5.29849">
        <ele>111.65026855469</ele>
        <time>2014-05-26T09:21:43Z</time>
      </trkpt>
      <trkpt lat="43.43242" lon="5.29856">
        <ele>111.65026855469</ele>
        <time>2014-05-26T09:21:52Z</time>
      </trkpt>
      <trkpt lat="43.43245" lon="5.29863">
        <ele>110.68884277344</ele>
        <time>2014-05-26T09:21:57Z</time>
      </trkpt>
      <trkpt lat="43.43247" lon="5.29864">
        <ele>110.68884277344</ele>
        <time>2014-05-26T09:21:59Z</time>
      </trkpt>
      <trkpt lat="43.43247" lon="5.29877">
        <ele>110.20825195312</ele>
        <time>2014-05-26T09:22:10Z</time>
      </trkpt>
      <trkpt lat="43.43247" lon="5.29878">
        <ele>111.16955566406</ele>
        <time>2014-05-26T09:22:42Z</time>
      </trkpt>
      <trkpt lat="43.43248" lon="5.29879">
        <ele>111.16955566406</ele>
        <time>2014-05-26T09:23:08Z</time>
      </trkpt>
      <trkpt lat="43.43263" lon="5.29895">
        <ele>111.16955566406</ele>
        <time>2014-05-26T09:23:26Z</time>
      </trkpt>
      <trkpt lat="43.43276" lon="5.29916">
        <ele>112.13098144531</ele>
        <time>2014-05-26T09:23:44Z</time>
      </trkpt>
      <trkpt lat="43.43276" lon="5.29916">
        <ele>109.24694824219</ele>
        <time>2014-05-26T09:23:47Z</time>
      </trkpt>
      <trkpt lat="43.43277" lon="5.29916">
        <ele>110.68884277344</ele>
        <time>2014-05-26T09:24:11Z</time>
      </trkpt>
      <trkpt lat="43.43281" lon="5.29926">
        <ele>111.16955566406</ele>
        <time>2014-05-26T09:24:19Z</time>
      </trkpt>
      <trkpt lat="43.43278" lon="5.29935">
        <ele>112.61157226562</ele>
        <time>2014-05-26T09:24:32Z</time>
      </trkpt>
      <trkpt lat="43.43278" lon="5.29938">
        <ele>112.61157226562</ele>
        <time>2014-05-26T09:24:39Z</time>
      </trkpt>
      <trkpt lat="43.43279" lon="5.29941">
        <ele>113.57299804688</ele>
        <time>2014-05-26T09:24:54Z</time>
      </trkpt>
      <trkpt lat="43.43273" lon="5.29957">
        <ele>114.05358886719</ele>
        <time>2014-05-26T09:25:12Z</time>
      </trkpt>
      <trkpt lat="43.43268" lon="5.29967">
        <ele>114.5341796875</ele>
        <time>2014-05-26T09:25:20Z</time>
      </trkpt>
      <trkpt lat="43.43263" lon="5.29983">
        <ele>115.01489257812</ele>
        <time>2014-05-26T09:25:35Z</time>
      </trkpt>
      <trkpt lat="43.4326" lon="5.29998">
        <ele>115.97619628906</ele>
        <time>2014-05-26T09:25:44Z</time>
      </trkpt>
      <trkpt lat="43.4326" lon="5.30006">
        <ele>116.45678710938</ele>
        <time>2014-05-26T09:25:52Z</time>
      </trkpt>
      <trkpt lat="43.43257" lon="5.3002">
        <ele>116.9375</ele>
        <time>2014-05-26T09:26:02Z</time>
      </trkpt>
      <trkpt lat="43.43262" lon="5.30036">
        <ele>118.86010742188</ele>
        <time>2014-05-26T09:26:19Z</time>
      </trkpt>
      <trkpt lat="43.43267" lon="5.3005">
        <ele>118.86010742188</ele>
        <time>2014-05-26T09:26:32Z</time>
      </trkpt>
      <trkpt lat="43.43276" lon="5.30068">
        <ele>119.3408203125</ele>
        <time>2014-05-26T09:26:46Z</time>
      </trkpt>
      <trkpt lat="43.43277" lon="5.30068">
        <ele>119.3408203125</ele>
        <time>2014-05-26T09:26:47Z</time>
      </trkpt>
      <trkpt lat="43.43277" lon="5.30079">
        <ele>119.82141113281</ele>
        <time>2014-05-26T09:26:54Z</time>
      </trkpt>
      <trkpt lat="43.43282" lon="5.30089">
        <ele>119.82141113281</ele>
        <time>2014-05-26T09:27:02Z</time>
      </trkpt>
      <trkpt lat="43.43284" lon="5.30099">
        <ele>119.82141113281</ele>
        <time>2014-05-26T09:27:10Z</time>
      </trkpt>
      <trkpt lat="43.43286" lon="5.30103">
        <ele>119.82141113281</ele>
        <time>2014-05-26T09:27:12Z</time>
      </trkpt>
      <trkpt lat="43.43287" lon="5.30106">
        <ele>120.30212402344</ele>
        <time>2014-05-26T09:27:15Z</time>
      </trkpt>
      <trkpt lat="43.43276" lon="5.30114">
        <ele>122.22473144531</ele>
        <time>2014-05-26T09:27:27Z</time>
      </trkpt>
      <trkpt lat="43.43271" lon="5.30109">
        <ele>122.22473144531</ele>
        <time>2014-05-26T09:27:55Z</time>
      </trkpt>
      <trkpt lat="43.43267" lon="5.30116">
        <ele>122.70544433594</ele>
        <time>2014-05-26T09:28:19Z</time>
      </trkpt>
      <trkpt lat="43.43265" lon="5.30124">
        <ele>123.18615722656</ele>
        <time>2014-05-26T09:28:37Z</time>
      </trkpt>
      <trkpt lat="43.43257" lon="5.3015">
        <ele>123.66674804688</ele>
        <time>2014-05-26T09:28:55Z</time>
      </trkpt>
      <trkpt lat="43.43257" lon="5.30158">
        <ele>122.22473144531</ele>
        <time>2014-05-26T09:29:03Z</time>
      </trkpt>
      <trkpt lat="43.4325" lon="5.30163">
        <ele>125.10876464844</ele>
        <time>2014-05-26T09:29:06Z</time>
      </trkpt>
      <trkpt lat="43.43242" lon="5.30177">
        <ele>125.10876464844</ele>
        <time>2014-05-26T09:29:16Z</time>
      </trkpt>
      <trkpt lat="43.4324" lon="5.30182">
        <ele>125.58935546875</ele>
        <time>2014-05-26T09:29:20Z</time>
      </trkpt>
      <trkpt lat="43.43241" lon="5.30196">
        <ele>126.06994628906</ele>
        <time>2014-05-26T09:29:32Z</time>
      </trkpt>
      <trkpt lat="43.43242" lon="5.302">
        <ele>126.55065917969</ele>
        <time>2014-05-26T09:29:35Z</time>
      </trkpt>
      <trkpt lat="43.43235" lon="5.30215">
        <ele>127.99255371094</ele>
        <time>2014-05-26T09:29:52Z</time>
      </trkpt>
      <trkpt lat="43.43237" lon="5.30224">
        <ele>128.47338867188</ele>
        <time>2014-05-26T09:30:01Z</time>
      </trkpt>
      <trkpt lat="43.43233" lon="5.30231">
        <ele>128.47338867188</ele>
        <time>2014-05-26T09:30:07Z</time>
      </trkpt>
      <trkpt lat="43.43233" lon="5.30244">
        <ele>129.91528320312</ele>
        <time>2014-05-26T09:30:18Z</time>
      </trkpt>
      <trkpt lat="43.43234" lon="5.30247">
        <ele>130.39599609375</ele>
        <time>2014-05-26T09:30:21Z</time>
      </trkpt>
      <trkpt lat="43.43238" lon="5.30251">
        <ele>130.39599609375</ele>
        <time>2014-05-26T09:30:25Z</time>
      </trkpt>
      <trkpt lat="43.43242" lon="5.30261">
        <ele>130.39599609375</ele>
        <time>2014-05-26T09:30:41Z</time>
      </trkpt>
      <trkpt lat="43.43244" lon="5.30266">
        <ele>130.39599609375</ele>
        <time>2014-05-26T09:30:46Z</time>
      </trkpt>
      <trkpt lat="43.4324" lon="5.30274">
        <ele>131.35729980469</ele>
        <time>2014-05-26T09:30:51Z</time>
      </trkpt>
      <trkpt lat="43.43239" lon="5.30279">
        <ele>131.35729980469</ele>
        <time>2014-05-26T09:30:54Z</time>
      </trkpt>
      <trkpt lat="43.43242" lon="5.30286">
        <ele>130.87670898438</ele>
        <time>2014-05-26T09:30:59Z</time>
      </trkpt>
      <trkpt lat="43.43242" lon="5.30293">
        <ele>130.87670898438</ele>
        <time>2014-05-26T09:31:03Z</time>
      </trkpt>
      <trkpt lat="43.4324" lon="5.30306">
        <ele>132.31860351562</ele>
        <time>2014-05-26T09:31:15Z</time>
      </trkpt>
      <trkpt lat="43.4324" lon="5.30308">
        <ele>132.31860351562</ele>
        <time>2014-05-26T09:31:16Z</time>
      </trkpt>
      <trkpt lat="43.43238" lon="5.30335">
        <ele>133.27990722656</ele>
        <time>2014-05-26T09:31:32Z</time>
      </trkpt>
      <trkpt lat="43.43237" lon="5.30348">
        <ele>132.79931640625</ele>
        <time>2014-05-26T09:31:41Z</time>
      </trkpt>
      <trkpt lat="43.43247" lon="5.30361">
        <ele>136.16394042969</ele>
        <time>2014-05-26T09:31:56Z</time>
      </trkpt>
      <trkpt lat="43.43253" lon="5.30373">
        <ele>139.0478515625</ele>
        <time>2014-05-26T09:32:10Z</time>
      </trkpt>
      <trkpt lat="43.43263" lon="5.30391">
        <ele>139.52844238281</ele>
        <time>2014-05-26T09:32:28Z</time>
      </trkpt>
      <trkpt lat="43.43264" lon="5.30391">
        <ele>139.52844238281</ele>
        <time>2014-05-26T09:32:45Z</time>
      </trkpt>
      <trkpt lat="43.43264" lon="5.30389">
        <ele>139.0478515625</ele>
        <time>2014-05-26T09:33:51Z</time>
      </trkpt>
      <trkpt lat="43.43273" lon="5.30386">
        <ele>139.0478515625</ele>
        <time>2014-05-26T09:33:57Z</time>
      </trkpt>
      <trkpt lat="43.43275" lon="5.30383">
        <ele>139.0478515625</ele>
        <time>2014-05-26T09:34:00Z</time>
      </trkpt>
      <trkpt lat="43.43287" lon="5.30377">
        <ele>139.0478515625</ele>
        <time>2014-05-26T09:34:10Z</time>
      </trkpt>
      <trkpt lat="43.43304" lon="5.30367">
        <ele>140.00915527344</ele>
        <time>2014-05-26T09:34:23Z</time>
      </trkpt>
      <trkpt lat="43.43306" lon="5.30364">
        <ele>140.00915527344</ele>
        <time>2014-05-26T09:34:26Z</time>
      </trkpt>
      <trkpt lat="43.43318" lon="5.30358">
        <ele>140.48986816406</ele>
        <time>2014-05-26T09:34:36Z</time>
      </trkpt>
      <trkpt lat="43.43337" lon="5.30366">
        <ele>140.97045898438</ele>
        <time>2014-05-26T09:34:51Z</time>
      </trkpt>
      <trkpt lat="43.43338" lon="5.30374">
        <ele>140.97045898438</ele>
        <time>2014-05-26T09:34:56Z</time>
      </trkpt>
      <trkpt lat="43.43341" lon="5.30384">
        <ele>140.97045898438</ele>
        <time>2014-05-26T09:35:01Z</time>
      </trkpt>
      <trkpt lat="43.43345" lon="5.30395">
        <ele>140.97045898438</ele>
        <time>2014-05-26T09:35:09Z</time>
      </trkpt>
      <trkpt lat="43.4335" lon="5.30403">
        <ele>140.97045898438</ele>
        <time>2014-05-26T09:35:14Z</time>
      </trkpt>
      <trkpt lat="43.43366" lon="5.30419">
        <ele>139.0478515625</ele>
        <time>2014-05-26T09:35:31Z</time>
      </trkpt>
      <trkpt lat="43.43371" lon="5.30421">
        <ele>138.56726074219</ele>
        <time>2014-05-26T09:35:36Z</time>
      </trkpt>
      <trkpt lat="43.43381" lon="5.30422">
        <ele>139.0478515625</ele>
        <time>2014-05-26T09:35:44Z</time>
      </trkpt>
      <trkpt lat="43.43384" lon="5.30415">
        <ele>138.56726074219</ele>
        <time>2014-05-26T09:35:51Z</time>
      </trkpt>
      <trkpt lat="43.43389" lon="5.304">
        <ele>139.52844238281</ele>
        <time>2014-05-26T09:36:05Z</time>
      </trkpt>
      <trkpt lat="43.43407" lon="5.30369">
        <ele>139.52844238281</ele>
        <time>2014-05-26T09:36:28Z</time>
      </trkpt>
      <trkpt lat="43.43428" lon="5.30345">
        <ele>137.12524414062</ele>
        <time>2014-05-26T09:36:51Z</time>
      </trkpt>
      <trkpt lat="43.43444" lon="5.30323">
        <ele>137.60583496094</ele>
        <time>2014-05-26T09:37:09Z</time>
      </trkpt>
      <trkpt lat="43.43445" lon="5.3032">
        <ele>137.60583496094</ele>
        <time>2014-05-26T09:37:11Z</time>
      </trkpt>
      <trkpt lat="43.43464" lon="5.30303">
        <ele>137.60583496094</ele>
        <time>2014-05-26T09:37:30Z</time>
      </trkpt>
      <trkpt lat="43.43478" lon="5.30293">
        <ele>137.12524414062</ele>
        <time>2014-05-26T09:37:45Z</time>
      </trkpt>
      <trkpt lat="43.43481" lon="5.30288">
        <ele>137.12524414062</ele>
        <time>2014-05-26T09:37:50Z</time>
      </trkpt>
      <trkpt lat="43.43484" lon="5.30281">
        <ele>137.60583496094</ele>
        <time>2014-05-26T09:37:55Z</time>
      </trkpt>
      <trkpt lat="43.43502" lon="5.30266">
        <ele>138.08654785156</ele>
        <time>2014-05-26T09:38:14Z</time>
      </trkpt>
      <trkpt lat="43.43519" lon="5.3026">
        <ele>138.08654785156</ele>
        <time>2014-05-26T09:38:30Z</time>
      </trkpt>
      <trkpt lat="43.43527" lon="5.30264">
        <ele>139.0478515625</ele>
        <time>2014-05-26T09:38:38Z</time>
      </trkpt>
      <trkpt lat="43.43541" lon="5.3027">
        <ele>140.48986816406</ele>
        <time>2014-05-26T09:38:53Z</time>
      </trkpt>
      <trkpt lat="43.43558" lon="5.30277">
        <ele>141.45104980469</ele>
        <time>2014-05-26T09:39:09Z</time>
      </trkpt>
      <trkpt lat="43.43571" lon="5.30272">
        <ele>140.97045898438</ele>
        <time>2014-05-26T09:39:24Z</time>
      </trkpt>
      <trkpt lat="43.43574" lon="5.30268">
        <ele>140.97045898438</ele>
        <time>2014-05-26T09:39:29Z</time>
      </trkpt>
      <trkpt lat="43.43581" lon="5.30251">
        <ele>141.93176269531</ele>
        <time>2014-05-26T09:39:43Z</time>
      </trkpt>
      <trkpt lat="43.43603" lon="5.30226">
        <ele>141.45104980469</ele>
        <time>2014-05-26T09:40:09Z</time>
      </trkpt>
      <trkpt lat="43.43621" lon="5.3021">
        <ele>143.85437011719</ele>
        <time>2014-05-26T09:40:26Z</time>
      </trkpt>
      <trkpt lat="43.43642" lon="5.30187">
        <ele>143.85437011719</ele>
        <time>2014-05-26T09:40:49Z</time>
      </trkpt>
      <trkpt lat="43.43652" lon="5.30178">
        <ele>143.85437011719</ele>
        <time>2014-05-26T09:41:00Z</time>
      </trkpt>
      <trkpt lat="43.43654" lon="5.30176">
        <ele>143.37365722656</ele>
        <time>2014-05-26T09:41:02Z</time>
      </trkpt>
      <trkpt lat="43.43677" lon="5.30156">
        <ele>142.89306640625</ele>
        <time>2014-05-26T09:41:25Z</time>
      </trkpt>
      <trkpt lat="43.43678" lon="5.30155">
        <ele>142.89306640625</ele>
        <time>2014-05-26T09:41:26Z</time>
      </trkpt>
      <trkpt lat="43.43681" lon="5.30152">
        <ele>142.89306640625</ele>
        <time>2014-05-26T09:41:30Z</time>
      </trkpt>
      <trkpt lat="43.43687" lon="5.30145">
        <ele>141.93176269531</ele>
        <time>2014-05-26T09:41:36Z</time>
      </trkpt>
      <trkpt lat="43.43689" lon="5.30142">
        <ele>142.41247558594</ele>
        <time>2014-05-26T09:41:39Z</time>
      </trkpt>
      <trkpt lat="43.43701" lon="5.30128">
        <ele>141.93176269531</ele>
        <time>2014-05-26T09:41:55Z</time>
      </trkpt>
      <trkpt lat="43.43719" lon="5.30115">
        <ele>142.41247558594</ele>
        <time>2014-05-26T09:42:14Z</time>
      </trkpt>
      <trkpt lat="43.43733" lon="5.30096">
        <ele>141.93176269531</ele>
        <time>2014-05-26T09:42:33Z</time>
      </trkpt>
      <trkpt lat="43.43754" lon="5.3006">
        <ele>142.41247558594</ele>
        <time>2014-05-26T09:43:02Z</time>
      </trkpt>
      <trkpt lat="43.43773" lon="5.30037">
        <ele>142.41247558594</ele>
        <time>2014-05-26T09:43:25Z</time>
      </trkpt>
      <trkpt lat="43.43784" lon="5.3002">
        <ele>142.41247558594</ele>
        <time>2014-05-26T09:43:40Z</time>
      </trkpt>
      <trkpt lat="43.43785" lon="5.30017">
        <ele>141.93176269531</ele>
        <time>2014-05-26T09:43:42Z</time>
      </trkpt>
      <trkpt lat="43.43787" lon="5.30015">
        <ele>141.93176269531</ele>
        <time>2014-05-26T09:43:44Z</time>
      </trkpt>
      <trkpt lat="43.43794" lon="5.30004">
        <ele>141.93176269531</ele>
        <time>2014-05-26T09:43:53Z</time>
      </trkpt>
      <trkpt lat="43.43808" lon="5.29986">
        <ele>141.45104980469</ele>
        <time>2014-05-26T09:44:11Z</time>
      </trkpt>
      <trkpt lat="43.43819" lon="5.29971">
        <ele>141.93176269531</ele>
        <time>2014-05-26T09:44:25Z</time>
      </trkpt>
      <trkpt lat="43.43834" lon="5.29947">
        <ele>142.41247558594</ele>
        <time>2014-05-26T09:44:44Z</time>
      </trkpt>
      <trkpt lat="43.43851" lon="5.29931">
        <ele>142.89306640625</ele>
        <time>2014-05-26T09:45:03Z</time>
      </trkpt>
      <trkpt lat="43.43861" lon="5.2992">
        <ele>142.89306640625</ele>
        <time>2014-05-26T09:45:16Z</time>
      </trkpt>
      <trkpt lat="43.43864" lon="5.29916">
        <ele>142.89306640625</ele>
        <time>2014-05-26T09:45:20Z</time>
      </trkpt>
      <trkpt lat="43.43881" lon="5.29896">
        <ele>143.37365722656</ele>
        <time>2014-05-26T09:45:42Z</time>
      </trkpt>
      <trkpt lat="43.43891" lon="5.29877">
        <ele>143.37365722656</ele>
        <time>2014-05-26T09:45:59Z</time>
      </trkpt>
      <trkpt lat="43.43897" lon="5.29868">
        <ele>143.37365722656</ele>
        <time>2014-05-26T09:46:09Z</time>
      </trkpt>
      <trkpt lat="43.43901" lon="5.29864">
        <ele>143.37365722656</ele>
        <time>2014-05-26T09:46:14Z</time>
      </trkpt>
      <trkpt lat="43.4391" lon="5.29854">
        <ele>143.85437011719</ele>
        <time>2014-05-26T09:46:23Z</time>
      </trkpt>
      <trkpt lat="43.43925" lon="5.29838">
        <ele>144.81579589844</ele>
        <time>2014-05-26T09:46:41Z</time>
      </trkpt>
      <trkpt lat="43.43937" lon="5.29826">
        <ele>144.81579589844</ele>
        <time>2014-05-26T09:46:56Z</time>
      </trkpt>
      <trkpt lat="43.43952" lon="5.29814">
        <ele>145.29638671875</ele>
        <time>2014-05-26T09:47:15Z</time>
      </trkpt>
      <trkpt lat="43.43953" lon="5.2981">
        <ele>145.77709960938</ele>
        <time>2014-05-26T09:47:31Z</time>
      </trkpt>
      <trkpt lat="43.43955" lon="5.2981">
        <ele>145.29638671875</ele>
        <time>2014-05-26T09:47:57Z</time>
      </trkpt>
      <trkpt lat="43.43965" lon="5.29793">
        <ele>144.81579589844</ele>
        <time>2014-05-26T09:48:16Z</time>
      </trkpt>
      <trkpt lat="43.43982" lon="5.29774">
        <ele>144.81579589844</ele>
        <time>2014-05-26T09:48:38Z</time>
      </trkpt>
      <trkpt lat="43.44005" lon="5.29748">
        <ele>145.29638671875</ele>
        <time>2014-05-26T09:49:06Z</time>
      </trkpt>
      <trkpt lat="43.44025" lon="5.29726">
        <ele>144.81579589844</ele>
        <time>2014-05-26T09:49:30Z</time>
      </trkpt>
      <trkpt lat="43.44046" lon="5.29708">
        <ele>144.33520507812</ele>
        <time>2014-05-26T09:49:53Z</time>
      </trkpt>
      <trkpt lat="43.44065" lon="5.29695">
        <ele>144.33520507812</ele>
        <time>2014-05-26T09:50:10Z</time>
      </trkpt>
      <trkpt lat="43.4408" lon="5.29687">
        <ele>143.85437011719</ele>
        <time>2014-05-26T09:50:25Z</time>
      </trkpt>
      <trkpt lat="43.44085" lon="5.29682">
        <ele>143.85437011719</ele>
        <time>2014-05-26T09:50:31Z</time>
      </trkpt>
      <trkpt lat="43.44091" lon="5.29679">
        <ele>143.37365722656</ele>
        <time>2014-05-26T09:50:37Z</time>
      </trkpt>
      <trkpt lat="43.44094" lon="5.29676">
        <ele>143.37365722656</ele>
        <time>2014-05-26T09:50:39Z</time>
      </trkpt>
      <trkpt lat="43.441" lon="5.29671">
        <ele>143.37365722656</ele>
        <time>2014-05-26T09:50:46Z</time>
      </trkpt>
      <trkpt lat="43.44113" lon="5.29657">
        <ele>142.89306640625</ele>
        <time>2014-05-26T09:51:03Z</time>
      </trkpt>
      <trkpt lat="43.44134" lon="5.29645">
        <ele>141.45104980469</ele>
        <time>2014-05-26T09:51:25Z</time>
      </trkpt>
      <trkpt lat="43.44152" lon="5.29637">
        <ele>139.52844238281</ele>
        <time>2014-05-26T09:51:45Z</time>
      </trkpt>
    </trkseg>
  </trk>
</gpx>